Time,TemperatureF,DewpointF,PressureIn,WindDirection,WindDirectionDegrees,WindSpeedMPH,WindSpeedGustMPH,Humidity,HourlyPrecipIn,Conditions,Clouds,dailyrainin,SoftwareType,DateUTC
2013-08-04 00:00:00,63.1,59.8,25.28,ESE,120,4.0,4.0,89,0.00,,---,0.00,VWS V14.01,2013-08-04 06:00:00,
2013-08-04 00:03:00,63.1,59.8,25.28,East,82,4.0,4.0,89,0.00,,---,0.00,VWS V14.01,2013-08-04 06:03:00,
2013-08-04 00:04:00,63.1,60.2,25.28,East,99,6.3,6.3,90,0.00,,---,0.00,VWS V14.01,2013-08-04 06:04:00,
2013-08-04 00:05:00,63.1,60.2,25.28,ESE,112,6.3,6.3,90,0.00,,---,0.00,VWS V14.01,2013-08-04 06:05:00,
2013-08-04 00:07:00,63.1,60.2,25.28,SSE,149,6.3,6.3,90,0.00,,---,0.00,VWS V14.01,2013-08-04 06:07:00,
2013-08-04 00:08:00,63.1,60.2,25.28,SE,139,8.1,8.1,90,0.00,,---,0.00,VWS V14.01,2013-08-04 06:08:00,
2013-08-04 00:10:00,63.1,60.2,25.28,East,95,3.1,3.1,90,0.00,,---,0.00,VWS V14.01,2013-08-04 06:10:00,
2013-08-04 00:12:00,63.1,60.2,25.28,East,87,3.1,3.1,90,0.00,,---,0.00,VWS V14.01,2013-08-04 06:12:00,
2013-08-04 00:14:00,63.1,60.2,25.28,ENE,78,2.7,2.7,90,0.00,,---,0.00,VWS V14.01,2013-08-04 06:14:00,
2013-08-04 00:15:00,63.1,60.2,25.28,ENE,78,2.7,2.7,90,0.00,,---,0.00,VWS V14.01,2013-08-04 06:15:00,
2013-08-04 00:17:00,63.1,60.2,25.28,East,79,2.7,3.6,90,0.00,,---,0.00,VWS V14.01,2013-08-04 06:17:00,
2013-08-04 00:20:00,63.3,60.3,25.28,SE,135,6.3,6.3,90,0.00,,---,0.00,VWS V14.01,2013-08-04 06:20:00,
2013-08-04 00:23:00,63.3,60.0,25.28,SSE,150,3.6,3.6,89,0.00,,---,0.00,VWS V14.01,2013-08-04 06:23:00,
2013-08-04 00:24:00,63.3,60.0,25.28,ESE,117,7.6,7.6,89,0.00,,---,0.00,VWS V14.01,2013-08-04 06:24:00,
2013-08-04 00:25:00,63.3,60.0,25.28,ESE,115,7.6,7.6,89,0.00,,---,0.00,VWS V14.01,2013-08-04 06:25:00,
2013-08-04 00:28:00,63.5,60.2,25.28,SE,126,3.6,5.8,89,0.00,,---,0.00,VWS V14.01,2013-08-04 06:28:00,
2013-08-04 00:29:00,63.5,60.2,25.28,SE,126,3.6,3.6,89,0.00,,---,0.00,VWS V14.01,2013-08-04 06:29:00,
2013-08-04 00:32:00,63.5,59.9,25.28,SE,138,4.0,4.0,88,0.00,,---,0.00,VWS V14.01,2013-08-04 06:32:00,
2013-08-04 00:33:00,63.5,59.9,25.28,SE,128,4.0,4.0,88,0.00,,---,0.00,VWS V14.01,2013-08-04 06:33:00,
2013-08-04 00:37:00,63.5,59.2,25.28,SE,144,4.0,4.0,86,0.00,,---,0.00,VWS V14.01,2013-08-04 06:37:00,
2013-08-04 00:39:00,63.7,59.4,25.28,NNE,27,5.4,8.7,86,0.00,,---,0.00,VWS V14.01,2013-08-04 06:39:00,
2013-08-04 00:40:00,63.7,59.4,25.28,NNE,27,5.4,5.4,86,0.00,,---,0.00,VWS V14.01,2013-08-04 06:40:00,
2013-08-04 00:42:00,63.7,59.4,25.28,ENE,75,2.7,2.7,86,0.00,,---,0.00,VWS V14.01,2013-08-04 06:42:00,
2013-08-04 00:44:00,63.7,59.4,25.28,East,100,3.1,3.1,86,0.00,,---,0.00,VWS V14.01,2013-08-04 06:44:00,
2013-08-04 00:47:00,63.5,59.2,25.28,East,84,4.0,4.0,86,0.00,,---,0.00,VWS V14.01,2013-08-04 06:47:00,
2013-08-04 00:49:00,63.5,59.2,25.28,ESE,114,3.1,3.1,86,0.00,,---,0.00,VWS V14.01,2013-08-04 06:49:00,
2013-08-04 00:52:00,63.5,58.9,25.28,East,96,2.7,2.7,85,0.00,,---,0.00,VWS V14.01,2013-08-04 06:52:00,
2013-08-04 00:53:00,63.7,59.1,25.25,East,96,2.7,2.7,85,0.00,,---,0.00,VWS V14.01,2013-08-04 06:53:00,
2013-08-04 00:57:00,63.7,58.8,25.25,East,92,2.2,8.3,84,0.00,,---,0.00,VWS V14.01,2013-08-04 06:57:00,
2013-08-04 00:58:00,63.7,58.4,25.25,East,92,2.2,2.2,83,0.00,,---,0.00,VWS V14.01,2013-08-04 06:58:00,
2013-08-04 00:59:00,63.9,58.6,25.25,ESE,109,2.2,2.2,83,0.00,,---,0.00,VWS V14.01,2013-08-04 06:59:00,
2013-08-04 01:03:00,63.9,58.6,25.25,SE,146,6.3,6.7,83,0.00,,---,0.00,VWS V14.01,2013-08-04 07:03:00,
2013-08-04 01:05:00,63.9,58.6,25.25,SE,146,6.3,6.3,83,0.00,,---,0.00,VWS V14.01,2013-08-04 07:05:00,
2013-08-04 01:06:00,63.9,58.6,25.25,ENE,63,3.1,6.3,83,0.00,,---,0.00,VWS V14.01,2013-08-04 07:06:00,
2013-08-04 01:07:00,63.9,58.6,25.25,East,89,2.2,3.1,83,0.00,,---,0.00,VWS V14.01,2013-08-04 07:07:00,
2013-08-04 01:10:00,63.9,58.3,25.25,ENE,61,0.0,0.0,82,0.00,,---,0.00,VWS V14.01,2013-08-04 07:10:00,
2013-08-04 01:13:00,63.9,58.3,25.25,SSE,153,6.3,6.3,82,0.00,,---,0.00,VWS V14.01,2013-08-04 07:13:00,
2013-08-04 01:15:00,63.9,58.3,25.25,SSE,153,6.3,6.3,82,0.00,,---,0.00,VWS V14.01,2013-08-04 07:15:00,
2013-08-04 01:17:00,64.0,58.4,25.25,East,83,3.6,5.8,82,0.00,,---,0.00,VWS V14.01,2013-08-04 07:17:00,
2013-08-04 01:20:00,64.0,58.4,25.25,ESE,106,3.1,3.6,82,0.00,,---,0.00,VWS V14.01,2013-08-04 07:20:00,
2013-08-04 01:22:00,64.0,58.4,25.25,East,95,3.1,3.1,82,0.00,,---,0.00,VWS V14.01,2013-08-04 07:22:00,
2013-08-04 01:24:00,64.0,58.4,25.25,North,357,3.1,5.4,82,0.00,,---,0.00,VWS V14.01,2013-08-04 07:24:00,
2013-08-04 01:26:00,64.0,58.4,25.25,SE,129,3.6,3.6,82,0.00,,---,0.00,VWS V14.01,2013-08-04 07:26:00,
2013-08-04 01:27:00,64.0,58.4,25.25,NNE,20,3.6,4.9,82,0.00,,---,0.00,VWS V14.01,2013-08-04 07:27:00,
2013-08-04 01:29:00,64.0,58.4,25.25,East,99,4.0,4.0,82,0.00,,---,0.00,VWS V14.01,2013-08-04 07:29:00,
2013-08-04 01:30:00,64.0,58.4,25.25,East,99,4.0,4.0,82,0.00,,---,0.00,VWS V14.01,2013-08-04 07:30:00,
2013-08-04 01:32:00,64.0,58.8,25.25,ESE,109,6.3,6.3,83,0.00,,---,0.00,VWS V14.01,2013-08-04 07:32:00,
2013-08-04 01:33:00,64.0,58.8,25.25,ESE,109,6.3,6.3,83,0.00,,---,0.00,VWS V14.01,2013-08-04 07:33:00,
2013-08-04 01:37:00,63.9,58.9,25.25,ESE,110,8.1,8.1,84,0.00,,---,0.00,VWS V14.01,2013-08-04 07:37:00,
2013-08-04 01:39:00,63.9,58.9,25.25,ESE,119,5.4,5.4,84,0.00,,---,0.00,VWS V14.01,2013-08-04 07:39:00,
2013-08-04 01:41:00,63.9,58.9,25.25,East,99,2.7,4.0,84,0.00,,---,0.00,VWS V14.01,2013-08-04 07:41:00,
2013-08-04 01:44:00,63.9,58.9,25.25,ESE,115,7.2,8.1,84,0.00,,---,0.00,VWS V14.01,2013-08-04 07:44:00,
2013-08-04 01:45:00,63.9,58.6,25.25,ESE,115,7.2,7.2,83,0.00,,---,0.00,VWS V14.01,2013-08-04 07:45:00,
2013-08-04 01:46:00,63.9,58.6,25.25,ESE,115,7.2,7.2,83,0.00,,---,0.00,VWS V14.01,2013-08-04 07:46:00,
2013-08-04 01:48:00,63.9,58.6,25.25,SSE,163,5.4,5.4,83,0.00,,---,0.00,VWS V14.01,2013-08-04 07:48:00,
2013-08-04 01:49:00,63.9,58.6,25.25,SSE,153,8.7,8.7,83,0.00,,---,0.00,VWS V14.01,2013-08-04 07:49:00,
2013-08-04 01:54:00,63.9,58.6,25.25,East,87,8.3,8.3,83,0.00,,---,0.00,VWS V14.01,2013-08-04 07:54:00,
2013-08-04 01:55:00,63.9,58.3,25.25,SSE,154,5.4,8.3,82,0.00,,---,0.00,VWS V14.01,2013-08-04 07:55:00,
2013-08-04 01:57:00,63.9,58.3,25.25,East,80,8.7,8.7,82,0.00,,---,0.00,VWS V14.01,2013-08-04 07:57:00,
2013-08-04 02:01:00,63.9,58.3,25.25,East,88,5.4,5.4,82,0.00,,---,0.00,VWS V14.01,2013-08-04 08:01:00,
2013-08-04 02:02:00,63.9,58.3,25.25,East,95,5.8,5.8,82,0.00,,---,0.00,VWS V14.01,2013-08-04 08:02:00,
2013-08-04 02:04:00,63.9,58.3,25.25,ESE,114,8.3,8.3,82,0.00,,---,0.00,VWS V14.01,2013-08-04 08:04:00,
2013-08-04 02:06:00,63.9,58.3,25.25,East,82,6.3,6.3,82,0.00,,---,0.00,VWS V14.01,2013-08-04 08:06:00,
2013-08-04 02:07:00,64.0,58.1,25.25,East,91,3.1,6.3,81,0.00,,---,0.00,VWS V14.01,2013-08-04 08:07:00,
2013-08-04 02:09:00,64.0,58.1,25.25,NNE,24,8.1,8.1,81,0.00,,---,0.00,VWS V14.01,2013-08-04 08:09:00,
2013-08-04 02:10:00,64.0,58.1,25.25,East,99,7.6,8.1,81,0.00,,---,0.00,VWS V14.01,2013-08-04 08:10:00,
2013-08-04 02:12:00,64.0,58.1,25.25,SE,146,8.7,8.7,81,0.00,,---,0.00,VWS V14.01,2013-08-04 08:12:00,
2013-08-04 02:13:00,64.0,58.1,25.25,SE,146,8.7,8.7,81,0.00,,---,0.00,VWS V14.01,2013-08-04 08:13:00,
2013-08-04 02:14:00,64.2,58.3,25.25,East,90,4.5,8.7,81,0.00,,---,0.00,VWS V14.01,2013-08-04 08:14:00,
2013-08-04 02:18:00,64.0,58.4,25.25,ENE,57,4.5,4.5,82,0.00,,---,0.00,VWS V14.01,2013-08-04 08:18:00,
2013-08-04 02:20:00,63.9,58.9,25.25,ENE,57,4.5,4.5,84,0.00,,---,0.00,VWS V14.01,2013-08-04 08:20:00,
2013-08-04 02:22:00,63.9,58.9,25.25,ENE,57,5.4,5.8,84,0.00,,---,0.00,VWS V14.01,2013-08-04 08:22:00,
2013-08-04 02:23:00,63.9,58.9,25.25,SSE,158,4.0,5.4,84,0.00,,---,0.00,VWS V14.01,2013-08-04 08:23:00,
2013-08-04 02:27:00,63.5,59.6,25.25,ESE,116,2.7,4.0,87,0.00,,---,0.00,VWS V14.01,2013-08-04 08:27:00,
2013-08-04 02:28:00,63.5,59.6,25.25,East,91,4.9,4.9,87,0.00,,---,0.00,VWS V14.01,2013-08-04 08:28:00,
2013-08-04 02:30:00,63.5,59.6,25.25,East,94,5.4,5.4,87,0.00,,---,0.00,VWS V14.01,2013-08-04 08:30:00,
2013-08-04 02:31:00,63.3,59.7,25.25,East,81,2.7,5.4,88,0.00,,---,0.00,VWS V14.01,2013-08-04 08:31:00,
2013-08-04 02:34:00,63.3,60.0,25.25,ESE,109,4.9,4.9,89,0.00,,---,0.00,VWS V14.01,2013-08-04 08:34:00,
2013-08-04 02:37:00,63.1,59.8,25.25,NE,56,5.4,5.4,89,0.00,,---,0.00,VWS V14.01,2013-08-04 08:37:00,
2013-08-04 02:38:00,63.1,59.8,25.25,NE,56,5.4,5.4,89,0.00,,---,0.00,VWS V14.01,2013-08-04 08:38:00,
2013-08-04 02:40:00,63.1,60.2,25.25,SE,145,4.9,4.9,90,0.00,,---,0.00,VWS V14.01,2013-08-04 08:40:00,
2013-08-04 02:41:00,63.1,60.2,25.25,SE,137,4.9,6.7,90,0.00,,---,0.00,VWS V14.01,2013-08-04 08:41:00,
2013-08-04 02:46:00,63.0,59.7,25.25,SE,137,4.9,4.9,89,0.00,,---,0.00,VWS V14.01,2013-08-04 08:46:00,
2013-08-04 02:47:00,63.0,59.7,25.25,SE,127,6.3,6.3,89,0.00,,---,0.00,VWS V14.01,2013-08-04 08:47:00,
2013-08-04 02:50:00,63.0,59.7,25.25,SSE,168,7.6,7.6,89,0.00,,---,0.00,VWS V14.01,2013-08-04 08:50:00,
2013-08-04 02:52:00,63.1,59.5,25.25,SE,141,7.6,7.6,88,0.00,,---,0.00,VWS V14.01,2013-08-04 08:52:00,
2013-08-04 02:53:00,63.1,59.5,25.25,SE,141,7.6,7.6,88,0.00,,---,0.00,VWS V14.01,2013-08-04 08:53:00,
2013-08-04 02:55:00,63.1,59.5,25.25,SE,136,3.1,4.9,88,0.00,,---,0.00,VWS V14.01,2013-08-04 08:55:00,
2013-08-04 02:56:00,63.1,59.5,25.25,SE,136,3.1,3.1,88,0.00,,---,0.00,VWS V14.01,2013-08-04 08:56:00,
2013-08-04 03:00:00,63.1,59.5,25.25,SE,138,0.0,0.0,88,0.00,,---,0.00,VWS V14.01,2013-08-04 09:00:00,
2013-08-04 03:02:00,63.1,59.5,25.25,SE,135,0.0,0.0,88,0.00,,---,0.00,VWS V14.01,2013-08-04 09:02:00,
2013-08-04 03:03:00,63.1,59.5,25.25,SSW,207,2.7,2.7,88,0.00,,---,0.00,VWS V14.01,2013-08-04 09:03:00,
2013-08-04 03:05:00,63.1,59.2,25.25,East,92,4.0,4.0,87,0.00,,---,0.00,VWS V14.01,2013-08-04 09:05:00,
2013-08-04 03:07:00,63.1,59.2,25.25,SE,128,3.6,3.6,87,0.00,,---,0.00,VWS V14.01,2013-08-04 09:07:00,
2013-08-04 03:08:00,63.1,59.2,25.25,ESE,107,0.0,3.6,87,0.00,,---,0.00,VWS V14.01,2013-08-04 09:08:00,
2013-08-04 03:11:00,63.1,59.2,25.25,ESE,118,2.2,3.6,87,0.00,,---,0.00,VWS V14.01,2013-08-04 09:11:00,
2013-08-04 03:13:00,63.1,59.2,25.25,ESE,114,2.7,2.7,87,0.00,,---,0.00,VWS V14.01,2013-08-04 09:13:00,
2013-08-04 03:15:00,63.1,59.5,25.25,ESE,104,5.8,5.8,88,0.00,,---,0.00,VWS V14.01,2013-08-04 09:15:00,
2013-08-04 03:16:00,63.1,59.5,25.25,ESE,120,0.0,5.8,88,0.00,,---,0.00,VWS V14.01,2013-08-04 09:16:00,
2013-08-04 03:19:00,63.1,59.5,25.25,SSW,201,0.0,0.0,88,0.00,,---,0.00,VWS V14.01,2013-08-04 09:19:00,
2013-08-04 03:21:00,63.1,59.5,25.25,ESE,111,0.0,4.0,88,0.00,,---,0.00,VWS V14.01,2013-08-04 09:21:00,
2013-08-04 03:23:00,63.1,59.5,25.25,ESE,123,0.0,0.0,88,0.00,,---,0.00,VWS V14.01,2013-08-04 09:23:00,
2013-08-04 03:24:00,63.1,59.5,25.25,ESE,106,3.1,3.1,88,0.00,,---,0.00,VWS V14.01,2013-08-04 09:24:00,
2013-08-04 03:26:00,63.1,59.5,25.25,SSE,158,3.1,5.4,88,0.00,,---,0.00,VWS V14.01,2013-08-04 09:26:00,
2013-08-04 03:28:00,63.1,59.2,25.25,SSE,147,2.7,2.7,87,0.00,,---,0.00,VWS V14.01,2013-08-04 09:28:00,
2013-08-04 03:30:00,63.3,59.4,25.25,ESE,106,2.2,3.1,87,0.00,,---,0.00,VWS V14.01,2013-08-04 09:30:00,
2013-08-04 03:34:00,63.5,59.2,25.25,ESE,111,2.7,6.3,86,0.00,,---,0.00,VWS V14.01,2013-08-04 09:34:00,
2013-08-04 03:36:00,63.5,59.2,25.25,East,93,5.8,5.8,86,0.00,,---,0.00,VWS V14.01,2013-08-04 09:36:00,
2013-08-04 03:37:00,63.5,59.2,25.25,SSE,160,4.9,5.8,86,0.00,,---,0.00,VWS V14.01,2013-08-04 09:37:00,
2013-08-04 03:38:00,63.5,58.6,25.25,ESE,112,5.4,5.4,84,0.00,,---,0.00,VWS V14.01,2013-08-04 09:38:00,
2013-08-04 03:39:00,63.5,58.2,25.25,East,89,2.2,5.4,83,0.00,,---,0.00,VWS V14.01,2013-08-04 09:39:00,
2013-08-04 03:42:00,63.5,58.2,25.25,NE,37,0.0,3.1,83,0.00,,---,0.00,VWS V14.01,2013-08-04 09:42:00,
2013-08-04 03:43:00,63.5,58.2,25.25,East,86,2.7,2.7,83,0.00,,---,0.00,VWS V14.01,2013-08-04 09:43:00,
2013-08-04 03:46:00,63.5,58.2,25.25,ESE,108,3.1,3.1,83,0.00,,---,0.00,VWS V14.01,2013-08-04 09:46:00,
2013-08-04 03:48:00,63.5,58.2,25.25,East,90,3.6,4.0,83,0.00,,---,0.00,VWS V14.01,2013-08-04 09:48:00,
2013-08-04 03:50:00,63.5,57.9,25.25,East,90,3.6,3.6,82,0.00,,---,0.00,VWS V14.01,2013-08-04 09:50:00,
2013-08-04 03:51:00,63.3,57.7,25.25,East,81,0.0,3.6,82,0.00,,---,0.00,VWS V14.01,2013-08-04 09:51:00,
2013-08-04 03:53:00,63.3,57.7,25.25,East,81,0.0,0.0,82,0.00,,---,0.00,VWS V14.01,2013-08-04 09:53:00,
2013-08-04 03:56:00,63.1,57.6,25.25,SE,130,4.0,4.0,82,0.00,,---,0.00,VWS V14.01,2013-08-04 09:56:00,
2013-08-04 03:58:00,63.1,57.6,25.25,SSE,149,2.7,2.7,82,0.00,,---,0.00,VWS V14.01,2013-08-04 09:58:00,
2013-08-04 04:01:00,63.1,57.6,25.25,ESE,107,3.6,3.6,82,0.00,,---,0.00,VWS V14.01,2013-08-04 10:01:00,
2013-08-04 04:02:00,63.1,57.6,25.25,SE,142,4.0,4.0,82,0.00,,---,0.00,VWS V14.01,2013-08-04 10:02:00,
2013-08-04 04:04:00,63.1,57.6,25.25,ESE,118,4.0,4.9,82,0.00,,---,0.00,VWS V14.01,2013-08-04 10:04:00,
2013-08-04 04:08:00,63.1,57.9,25.25,SSE,158,5.4,5.4,83,0.00,,---,0.00,VWS V14.01,2013-08-04 10:08:00,
2013-08-04 04:10:00,63.1,57.9,25.25,East,99,4.9,5.4,83,0.00,,---,0.00,VWS V14.01,2013-08-04 10:10:00,
2013-08-04 04:11:00,63.1,57.9,25.25,East,99,4.9,4.9,83,0.00,,---,0.00,VWS V14.01,2013-08-04 10:11:00,
2013-08-04 04:12:00,63.1,57.9,25.25,ESE,108,2.2,4.9,83,0.00,,---,0.00,VWS V14.01,2013-08-04 10:12:00,
2013-08-04 04:14:00,63.1,57.9,25.25,SE,133,2.2,3.1,83,0.00,,---,0.00,VWS V14.01,2013-08-04 10:14:00,
2013-08-04 04:15:00,63.1,57.9,25.25,SE,133,2.2,2.2,83,0.00,,---,0.00,VWS V14.01,2013-08-04 10:15:00,
2013-08-04 04:19:00,63.3,57.7,25.25,SE,139,5.8,8.1,82,0.00,,---,0.00,VWS V14.01,2013-08-04 10:19:00,
2013-08-04 04:20:00,63.3,57.7,25.25,SSE,147,3.1,5.4,82,0.00,,---,0.00,VWS V14.01,2013-08-04 10:20:00,
2013-08-04 04:23:00,63.5,57.6,25.25,SE,139,6.3,6.3,81,0.00,,---,0.00,VWS V14.01,2013-08-04 10:23:00,
2013-08-04 04:26:00,63.7,57.4,25.25,East,92,5.4,6.3,80,0.00,,---,0.00,VWS V14.01,2013-08-04 10:26:00,
2013-08-04 04:27:00,63.7,57.4,25.25,East,92,5.4,5.4,80,0.00,,---,0.00,VWS V14.01,2013-08-04 10:27:00,
2013-08-04 04:28:00,63.7,57.4,25.22,East,92,5.4,5.4,80,0.00,,---,0.00,VWS V14.01,2013-08-04 10:28:00,
2013-08-04 04:29:00,63.7,57.4,25.22,East,84,3.1,5.4,80,0.00,,---,0.00,VWS V14.01,2013-08-04 10:29:00,
2013-08-04 04:30:00,63.9,57.6,25.22,NE,52,0.0,2.2,80,0.00,,---,0.00,VWS V14.01,2013-08-04 10:30:00,
2013-08-04 04:32:00,63.9,57.6,25.22,East,84,4.0,4.0,80,0.00,,---,0.00,VWS V14.01,2013-08-04 10:32:00,
2013-08-04 04:33:00,63.9,57.6,25.22,East,84,4.0,4.0,80,0.00,,---,0.00,VWS V14.01,2013-08-04 10:33:00,
2013-08-04 04:35:00,63.9,57.6,25.22,ESE,110,2.7,4.0,80,0.00,,---,0.00,VWS V14.01,2013-08-04 10:35:00,
2013-08-04 04:39:00,63.7,57.8,25.25,NE,49,6.7,6.7,81,0.00,,---,0.00,VWS V14.01,2013-08-04 10:39:00,
2013-08-04 04:40:00,63.7,57.8,25.25,East,85,6.3,6.7,81,0.00,,---,0.00,VWS V14.01,2013-08-04 10:40:00,
2013-08-04 04:41:00,63.7,57.8,25.25,ENE,58,4.0,6.3,81,0.00,,---,0.00,VWS V14.01,2013-08-04 10:41:00,
2013-08-04 04:44:00,63.7,57.8,25.25,ESE,113,2.7,3.1,81,0.00,,---,0.00,VWS V14.01,2013-08-04 10:44:00,
2013-08-04 04:46:00,63.7,57.8,25.25,East,95,3.6,3.6,81,0.00,,---,0.00,VWS V14.01,2013-08-04 10:46:00,
2013-08-04 04:47:00,63.7,58.1,25.25,NE,55,3.1,3.6,82,0.00,,---,0.00,VWS V14.01,2013-08-04 10:47:00,
2013-08-04 04:51:00,63.7,58.4,25.25,SE,136,4.9,4.9,83,0.00,,---,0.00,VWS V14.01,2013-08-04 10:51:00,
2013-08-04 04:55:00,63.7,58.8,25.25,SSE,154,4.0,4.0,84,0.00,,---,0.00,VWS V14.01,2013-08-04 10:55:00,
2013-08-04 04:56:00,63.7,58.8,25.25,East,96,4.5,6.3,84,0.00,,---,0.00,VWS V14.01,2013-08-04 10:56:00,
2013-08-04 04:57:00,63.5,58.6,25.25,East,98,5.8,5.8,84,0.00,,---,0.00,VWS V14.01,2013-08-04 10:57:00,
2013-08-04 05:01:00,63.5,58.9,25.25,SE,133,5.8,5.8,85,0.00,,---,0.00,VWS V14.01,2013-08-04 11:01:00,
2013-08-04 05:03:00,63.5,59.2,25.25,ENE,59,3.1,3.6,86,0.00,,---,0.00,VWS V14.01,2013-08-04 11:03:00,
2013-08-04 05:05:00,63.5,59.2,25.25,ENE,76,3.1,3.1,86,0.00,,---,0.00,VWS V14.01,2013-08-04 11:05:00,
2013-08-04 05:06:00,63.5,59.2,25.25,East,94,8.1,8.1,86,0.00,,---,0.00,VWS V14.01,2013-08-04 11:06:00,
2013-08-04 05:08:00,63.3,59.4,25.25,ENE,59,3.1,8.1,87,0.00,,---,0.00,VWS V14.01,2013-08-04 11:08:00,
2013-08-04 05:09:00,63.3,59.4,25.25,East,99,3.1,3.1,87,0.00,,---,0.00,VWS V14.01,2013-08-04 11:09:00,
2013-08-04 05:12:00,63.3,59.4,25.25,East,81,6.3,8.3,87,0.00,,---,0.00,VWS V14.01,2013-08-04 11:12:00,
2013-08-04 05:14:00,63.1,59.5,25.25,ESE,120,5.4,6.3,88,0.00,,---,0.00,VWS V14.01,2013-08-04 11:14:00,
2013-08-04 05:19:00,63.1,59.5,25.25,SE,127,2.7,2.7,88,0.00,,---,0.00,VWS V14.01,2013-08-04 11:19:00,
2013-08-04 05:25:00,63.0,59.4,25.25,ENE,71,5.4,5.4,88,0.00,,---,0.00,VWS V14.01,2013-08-04 11:25:00,
2013-08-04 05:26:00,63.0,59.4,25.25,ENE,62,2.2,5.4,88,0.00,,---,0.00,VWS V14.01,2013-08-04 11:26:00,
2013-08-04 05:27:00,63.0,59.4,25.25,ENE,62,2.2,2.2,88,0.00,,---,0.00,VWS V14.01,2013-08-04 11:27:00,
2013-08-04 05:31:00,63.0,59.4,25.25,East,95,4.9,4.9,88,0.00,,---,0.00,VWS V14.01,2013-08-04 11:31:00,
2013-08-04 05:33:00,63.0,59.4,25.25,East,83,5.4,5.4,88,0.00,,---,0.00,VWS V14.01,2013-08-04 11:33:00,
2013-08-04 05:35:00,63.0,59.4,25.25,NE,38,8.3,8.3,88,0.00,,---,0.00,VWS V14.01,2013-08-04 11:35:00,
2013-08-04 05:37:00,63.1,59.2,25.25,ESE,102,5.8,8.3,87,0.00,,---,0.00,VWS V14.01,2013-08-04 11:37:00,
2013-08-04 05:38:00,63.1,59.2,25.25,ENE,74,0.0,5.8,87,0.00,,---,0.00,VWS V14.01,2013-08-04 11:38:00,
2013-08-04 05:41:00,63.1,59.5,25.25,ESE,120,5.4,5.4,88,0.00,,---,0.00,VWS V14.01,2013-08-04 11:41:00,
2013-08-04 05:43:00,63.3,59.4,25.25,East,95,5.8,5.8,87,0.00,,---,0.00,VWS V14.01,2013-08-04 11:43:00,
2013-08-04 05:47:00,63.3,59.4,25.25,ESE,102,5.4,5.4,87,0.00,,---,0.00,VWS V14.01,2013-08-04 11:47:00,
2013-08-04 05:49:00,63.1,59.2,25.25,East,100,2.2,5.4,87,0.00,,---,0.00,VWS V14.01,2013-08-04 11:49:00,
2013-08-04 05:52:00,63.1,59.5,25.25,ENE,73,4.0,6.3,88,0.00,,---,0.00,VWS V14.01,2013-08-04 11:52:00,
2013-08-04 05:53:00,63.1,59.5,25.25,NE,56,3.6,4.0,88,0.00,,---,0.00,VWS V14.01,2013-08-04 11:53:00,
2013-08-04 05:54:00,63.1,59.5,25.25,SSE,148,5.8,5.8,88,0.00,,---,0.00,VWS V14.01,2013-08-04 11:54:00,
2013-08-04 05:55:00,63.1,59.5,25.25,SSE,148,5.8,5.8,88,0.00,,---,0.00,VWS V14.01,2013-08-04 11:55:00,
2013-08-04 05:56:00,63.1,59.5,25.28,East,84,5.8,5.8,88,0.00,,---,0.00,VWS V14.01,2013-08-04 11:56:00,
2013-08-04 06:01:00,63.0,59.4,25.28,SE,131,4.0,4.0,88,0.00,,---,0.00,VWS V14.01,2013-08-04 12:01:00,
2013-08-04 06:02:00,63.0,59.4,25.28,ENE,67,2.2,5.4,88,0.00,,---,0.00,VWS V14.01,2013-08-04 12:02:00,
2013-08-04 06:07:00,62.8,59.8,25.28,East,101,2.7,2.7,90,0.00,,---,0.00,VWS V14.01,2013-08-04 12:07:00,
2013-08-04 06:10:00,62.8,59.8,25.28,ENE,64,3.6,3.6,90,0.00,,---,0.00,VWS V14.01,2013-08-04 12:10:00,
2013-08-04 06:12:00,62.8,60.1,25.28,East,101,0.0,0.0,91,0.00,,---,0.00,VWS V14.01,2013-08-04 12:12:00,
2013-08-04 06:15:00,62.6,59.9,25.28,ESE,105,2.7,2.7,91,0.00,,---,0.00,VWS V14.01,2013-08-04 12:15:00,
2013-08-04 06:16:00,62.6,59.9,25.28,East,92,3.1,4.9,91,0.00,,---,0.00,VWS V14.01,2013-08-04 12:16:00,
2013-08-04 06:18:00,62.8,60.1,25.28,SSE,156,3.6,6.3,91,0.00,,---,0.00,VWS V14.01,2013-08-04 12:18:00,
2013-08-04 06:19:00,62.8,60.1,25.28,SE,146,3.1,3.6,91,0.00,,---,0.00,VWS V14.01,2013-08-04 12:19:00,
2013-08-04 06:21:00,63.0,60.6,25.25,SSE,155,8.7,8.7,92,0.00,,---,0.00,VWS V14.01,2013-08-04 12:21:00,
2013-08-04 06:22:00,63.0,60.6,25.25,East,90,5.4,8.7,92,0.00,,---,0.00,VWS V14.01,2013-08-04 12:22:00,
2013-08-04 06:26:00,63.0,60.6,25.25,East,93,3.6,3.6,92,0.00,,---,0.00,VWS V14.01,2013-08-04 12:26:00,
2013-08-04 06:27:00,63.0,60.6,25.25,ESE,122,3.6,3.6,92,0.00,,---,0.00,VWS V14.01,2013-08-04 12:27:00,
2013-08-04 06:29:00,63.1,60.2,25.25,NE,39,4.9,5.8,90,0.00,,---,0.00,VWS V14.01,2013-08-04 12:29:00,
2013-08-04 06:30:00,63.1,60.2,25.25,SE,138,6.3,6.3,90,0.00,,---,0.00,VWS V14.01,2013-08-04 12:30:00,
2013-08-04 06:34:00,63.1,60.2,25.25,East,90,4.0,5.8,90,0.00,,---,0.00,VWS V14.01,2013-08-04 12:34:00,
2013-08-04 06:37:00,63.0,60.0,25.28,NNE,31,2.7,3.1,90,0.00,,---,0.00,VWS V14.01,2013-08-04 12:37:00,
2013-08-04 06:40:00,63.0,60.0,25.28,East,88,3.1,3.1,90,0.00,,---,0.00,VWS V14.01,2013-08-04 12:40:00,
2013-08-04 06:43:00,62.8,59.8,25.28,East,86,7.6,7.6,90,0.00,,---,0.00,VWS V14.01,2013-08-04 12:43:00,
2013-08-04 06:47:00,62.8,60.1,25.28,ESE,104,2.7,2.7,91,0.00,,---,0.00,VWS V14.01,2013-08-04 12:47:00,
2013-08-04 06:49:00,62.8,60.1,25.28,South,171,3.1,5.8,91,0.00,,---,0.00,VWS V14.01,2013-08-04 12:49:00,
2013-08-04 06:50:00,62.8,60.1,25.28,SE,142,4.0,4.0,91,0.00,,---,0.00,VWS V14.01,2013-08-04 12:50:00,
2013-08-04 06:52:00,62.8,60.7,25.28,East,86,4.9,4.9,93,0.00,,---,0.00,VWS V14.01,2013-08-04 12:52:00,
2013-08-04 06:53:00,62.8,60.7,25.28,East,86,4.9,4.9,93,0.00,,---,0.00,VWS V14.01,2013-08-04 12:53:00,
2013-08-04 06:55:00,62.8,60.7,25.28,ESE,112,2.7,4.9,93,0.00,,---,0.00,VWS V14.01,2013-08-04 12:55:00,
2013-08-04 06:56:00,62.8,60.7,25.28,ESE,106,4.0,4.9,93,0.00,,---,0.00,VWS V14.01,2013-08-04 12:56:00,
2013-08-04 06:59:00,62.8,60.7,25.28,SE,139,2.7,4.0,93,0.00,,---,0.00,VWS V14.01,2013-08-04 12:59:00,
2013-08-04 07:03:00,62.8,60.7,25.28,ESE,105,4.5,4.5,93,0.00,,---,0.00,VWS V14.01,2013-08-04 13:03:00,
2013-08-04 07:06:00,62.8,60.7,25.28,SE,142,5.4,8.3,93,0.00,,---,0.00,VWS V14.01,2013-08-04 13:06:00,
2013-08-04 07:10:00,62.6,60.5,25.28,East,82,2.7,3.6,93,0.00,,---,0.00,VWS V14.01,2013-08-04 13:10:00,
2013-08-04 07:12:00,62.6,60.2,25.28,ESE,109,3.1,3.1,92,0.00,,---,0.00,VWS V14.01,2013-08-04 13:12:00,
2013-08-04 07:15:00,62.6,60.2,25.28,SE,129,0.0,3.6,92,0.00,,---,0.00,VWS V14.01,2013-08-04 13:15:00,
2013-08-04 07:16:00,62.6,60.2,25.28,SE,129,0.0,0.0,92,0.00,,---,0.00,VWS V14.01,2013-08-04 13:16:00,
2013-08-04 07:21:00,62.4,59.5,25.28,ENE,62,5.4,5.4,90,0.00,,---,0.00,VWS V14.01,2013-08-04 13:21:00,
2013-08-04 07:23:00,62.2,59.0,25.28,SSE,148,3.1,4.9,89,0.00,,---,0.00,VWS V14.01,2013-08-04 13:23:00,
2013-08-04 07:26:00,62.2,59.0,25.28,SSE,151,5.8,5.8,89,0.00,,---,0.00,VWS V14.01,2013-08-04 13:26:00,
2013-08-04 07:29:00,62.2,58.7,25.28,SE,144,6.3,6.7,88,0.00,,---,0.00,VWS V14.01,2013-08-04 13:29:00,
2013-08-04 07:30:00,62.2,58.7,25.28,SE,140,6.3,6.3,88,0.00,,---,0.00,VWS V14.01,2013-08-04 13:30:00,
2013-08-04 07:32:00,62.1,58.5,25.28,East,90,3.1,5.4,88,0.00,,---,0.00,VWS V14.01,2013-08-04 13:32:00,
2013-08-04 07:35:00,62.2,58.7,25.28,SSE,147,5.8,5.8,88,0.00,,---,0.00,VWS V14.01,2013-08-04 13:35:00,
2013-08-04 07:37:00,62.2,58.7,25.28,SE,133,6.3,6.3,88,0.00,,---,0.00,VWS V14.01,2013-08-04 13:37:00,
2013-08-04 07:38:00,62.2,58.7,25.28,SE,124,5.8,6.3,88,0.00,,---,0.00,VWS V14.01,2013-08-04 13:38:00,
2013-08-04 07:39:00,62.4,59.1,25.28,ESE,122,6.3,8.7,89,0.00,,---,0.00,VWS V14.01,2013-08-04 13:39:00,
2013-08-04 07:41:00,62.4,59.1,25.28,NE,37,5.8,5.8,89,0.00,,---,0.00,VWS V14.01,2013-08-04 13:41:00,
2013-08-04 07:42:00,62.4,59.1,25.28,SSE,157,3.1,5.8,89,0.00,,---,0.00,VWS V14.01,2013-08-04 13:42:00,
2013-08-04 07:45:00,62.4,59.1,25.28,ESE,111,6.3,7.6,89,0.00,,---,0.00,VWS V14.01,2013-08-04 13:45:00,
2013-08-04 07:46:00,62.8,57.5,25.28,SE,140,10.1,10.1,83,0.00,,---,0.00,VWS V14.01,2013-08-04 13:46:00,
2013-08-04 07:48:00,63.1,56.5,25.28,ESE,118,8.7,8.7,79,0.00,,---,0.00,VWS V14.01,2013-08-04 13:48:00,
2013-08-04 07:49:00,63.1,56.5,25.28,East,85,8.3,8.7,79,0.00,,---,0.00,VWS V14.01,2013-08-04 13:49:00,
2013-08-04 07:50:00,63.1,56.5,25.28,SE,144,6.3,8.3,79,0.00,,---,0.00,VWS V14.01,2013-08-04 13:50:00,
2013-08-04 07:53:00,63.1,56.5,25.28,SSE,168,5.8,8.3,79,0.00,,---,0.00,VWS V14.01,2013-08-04 13:53:00,
2013-08-04 07:54:00,63.5,53.9,25.28,ESE,122,8.7,8.7,71,0.00,,---,0.00,VWS V14.01,2013-08-04 13:54:00,
2013-08-04 07:55:00,63.5,53.9,25.28,ESE,122,8.7,8.7,71,0.00,,---,0.00,VWS V14.01,2013-08-04 13:55:00,
2013-08-04 08:00:00,63.9,53.9,25.28,NE,56,3.6,10.5,70,0.00,,---,0.00,VWS V14.01,2013-08-04 14:00:00,
2013-08-04 08:04:00,63.9,53.9,25.28,ENE,78,3.1,3.1,70,0.00,,---,0.00,VWS V14.01,2013-08-04 14:04:00,
2013-08-04 08:06:00,63.9,53.9,25.28,East,94,3.6,3.6,70,0.00,,---,0.00,VWS V14.01,2013-08-04 14:06:00,
2013-08-04 08:08:00,63.9,53.9,25.28,ESE,103,3.1,3.6,70,0.00,,---,0.00,VWS V14.01,2013-08-04 14:08:00,
2013-08-04 08:09:00,63.9,53.9,25.28,SSE,159,5.4,5.4,70,0.00,,---,0.00,VWS V14.01,2013-08-04 14:09:00,
2013-08-04 08:16:00,63.9,51.9,25.28,ESE,114,4.9,9.2,65,0.00,,---,0.00,VWS V14.01,2013-08-04 14:16:00,
2013-08-04 08:17:00,63.9,51.9,25.28,ESE,114,4.9,4.9,65,0.00,,---,0.00,VWS V14.01,2013-08-04 14:17:00,
2013-08-04 08:18:00,63.9,51.9,25.28,ESE,123,10.5,10.5,65,0.00,,---,0.00,VWS V14.01,2013-08-04 14:18:00,
2013-08-04 08:21:00,63.9,51.9,25.28,East,83,7.6,7.6,65,0.00,,---,0.00,VWS V14.01,2013-08-04 14:21:00,
2013-08-04 08:23:00,64.0,52.5,25.28,East,100,4.0,5.4,66,0.00,,---,0.00,VWS V14.01,2013-08-04 14:23:00,
2013-08-04 08:24:00,63.9,52.3,25.28,South,178,3.6,4.0,66,0.00,,---,0.00,VWS V14.01,2013-08-04 14:24:00,
2013-08-04 08:25:00,63.9,52.3,25.28,East,96,3.6,3.6,66,0.00,,---,0.00,VWS V14.01,2013-08-04 14:25:00,
2013-08-04 08:27:00,63.9,52.3,25.28,SE,129,5.4,5.4,66,0.00,,---,0.00,VWS V14.01,2013-08-04 14:27:00,
2013-08-04 08:30:00,63.7,51.3,25.28,ENE,78,5.4,10.5,64,0.00,,---,0.00,VWS V14.01,2013-08-04 14:30:00,
2013-08-04 08:31:00,63.7,51.3,25.28,SE,135,0.0,5.4,64,0.00,,---,0.00,VWS V14.01,2013-08-04 14:31:00,
2013-08-04 08:32:00,63.9,51.5,25.28,SE,138,9.6,9.6,64,0.00,,---,0.00,VWS V14.01,2013-08-04 14:32:00,
2013-08-04 08:33:00,63.9,51.5,25.28,SE,138,9.6,9.6,64,0.00,,---,0.00,VWS V14.01,2013-08-04 14:33:00,
2013-08-04 08:34:00,63.9,51.5,25.28,SE,130,3.6,3.6,64,0.00,,---,0.00,VWS V14.01,2013-08-04 14:34:00,
2013-08-04 08:39:00,63.9,51.5,25.28,ENE,72,5.8,5.8,64,0.00,,---,0.00,VWS V14.01,2013-08-04 14:39:00,
2013-08-04 08:40:00,63.9,51.5,25.28,ENE,72,5.8,5.8,64,0.00,,---,0.00,VWS V14.01,2013-08-04 14:40:00,
2013-08-04 08:44:00,64.4,48.8,25.28,SW,227,3.1,5.4,57,0.00,,---,0.00,VWS V14.01,2013-08-04 14:44:00,
2013-08-04 08:48:00,64.9,48.9,25.28,SE,146,4.5,8.3,56,0.00,,---,0.00,VWS V14.01,2013-08-04 14:48:00,
2013-08-04 08:50:00,64.9,48.9,25.28,East,93,7.6,7.6,56,0.00,,---,0.00,VWS V14.01,2013-08-04 14:50:00,
2013-08-04 08:51:00,64.9,48.9,25.28,East,91,4.0,7.6,56,0.00,,---,0.00,VWS V14.01,2013-08-04 14:51:00,
2013-08-04 08:53:00,64.9,48.4,25.28,East,91,4.0,4.0,55,0.00,,---,0.00,VWS V14.01,2013-08-04 14:53:00,
2013-08-04 08:55:00,64.9,48.4,25.28,ESE,109,6.3,6.3,55,0.00,,---,0.00,VWS V14.01,2013-08-04 14:55:00,
2013-08-04 08:56:00,64.9,48.4,25.28,ESE,109,6.3,6.3,55,0.00,,---,0.00,VWS V14.01,2013-08-04 14:56:00,
2013-08-04 09:00:00,65.1,47.6,25.28,SE,141,4.0,5.8,53,0.00,,---,0.00,VWS V14.01,2013-08-04 15:00:00,
2013-08-04 09:01:00,65.1,47.6,25.28,SE,141,6.3,6.3,53,0.00,,---,0.00,VWS V14.01,2013-08-04 15:01:00,
2013-08-04 09:03:00,65.3,48.2,25.28,East,92,5.4,6.3,54,0.00,,---,0.00,VWS V14.01,2013-08-04 15:03:00,
2013-08-04 09:05:00,65.3,48.2,25.28,SE,128,3.6,6.3,54,0.00,,---,0.00,VWS V14.01,2013-08-04 15:05:00,
2013-08-04 09:06:00,65.3,48.2,25.28,SE,128,3.6,3.6,54,0.00,,---,0.00,VWS V14.01,2013-08-04 15:06:00,
2013-08-04 09:07:00,65.3,48.7,25.28,SE,128,3.6,3.6,55,0.00,,---,0.00,VWS V14.01,2013-08-04 15:07:00,
2013-08-04 09:08:00,65.3,48.7,25.28,East,84,12.8,12.8,55,0.00,,---,0.00,VWS V14.01,2013-08-04 15:08:00,
2013-08-04 09:14:00,65.8,48.8,25.28,ESE,112,6.7,6.7,54,0.00,,---,0.00,VWS V14.01,2013-08-04 15:14:00,
2013-08-04 09:15:00,65.8,48.8,25.28,SE,138,6.3,10.5,54,0.00,,---,0.00,VWS V14.01,2013-08-04 15:15:00,
2013-08-04 09:19:00,65.8,47.7,25.28,ENE,74,5.8,5.8,52,0.00,,---,0.00,VWS V14.01,2013-08-04 15:19:00,
2013-08-04 09:21:00,65.8,47.7,25.28,East,82,4.0,4.0,52,0.00,,---,0.00,VWS V14.01,2013-08-04 15:21:00,
2013-08-04 09:22:00,65.8,47.7,25.28,East,82,4.0,4.0,52,0.00,,---,0.00,VWS V14.01,2013-08-04 15:22:00,
2013-08-04 09:25:00,65.8,47.7,25.28,ESE,117,3.1,4.0,52,0.00,,---,0.00,VWS V14.01,2013-08-04 15:25:00,
2013-08-04 09:27:00,65.8,50.7,25.28,East,99,6.3,6.3,58,0.00,,---,0.00,VWS V14.01,2013-08-04 15:27:00,
2013-08-04 09:29:00,65.7,49.1,25.28,East,99,6.3,6.3,55,0.00,,---,0.00,VWS V14.01,2013-08-04 15:29:00,
2013-08-04 09:30:00,65.7,48.6,25.28,ENE,61,6.3,6.3,54,0.00,,---,0.00,VWS V14.01,2013-08-04 15:30:00,
2013-08-04 09:33:00,65.7,50.5,25.28,East,98,6.3,6.3,58,0.00,,---,0.00,VWS V14.01,2013-08-04 15:33:00,
2013-08-04 09:37:00,65.7,50.5,25.28,ESE,117,5.4,7.6,58,0.00,,---,0.00,VWS V14.01,2013-08-04 15:37:00,
2013-08-04 09:38:00,65.7,50.5,25.28,SSE,150,4.9,5.4,58,0.00,,---,0.00,VWS V14.01,2013-08-04 15:38:00,
2013-08-04 09:43:00,65.7,50.5,25.28,East,85,5.4,5.4,58,0.00,,---,0.00,VWS V14.01,2013-08-04 15:43:00,
2013-08-04 09:45:00,65.7,50.5,25.28,East,96,3.1,5.4,58,0.00,,---,0.00,VWS V14.01,2013-08-04 15:45:00,
2013-08-04 09:47:00,65.7,50.5,25.28,ESE,110,6.3,6.3,58,0.00,,---,0.00,VWS V14.01,2013-08-04 15:47:00,
2013-08-04 09:49:00,65.8,50.2,25.28,NE,37,4.0,6.3,57,0.00,,---,0.00,VWS V14.01,2013-08-04 15:49:00,
2013-08-04 09:51:00,65.8,50.2,25.28,ESE,102,5.4,6.3,57,0.00,,---,0.00,VWS V14.01,2013-08-04 15:51:00,
2013-08-04 09:53:00,65.8,50.2,25.28,East,98,2.2,5.4,57,0.00,,---,0.00,VWS V14.01,2013-08-04 15:53:00,
2013-08-04 09:54:00,66.0,50.4,25.28,East,85,3.1,3.1,57,0.00,,---,0.00,VWS V14.01,2013-08-04 15:54:00,
2013-08-04 09:57:00,66.0,49.9,25.28,ESE,118,8.7,8.7,56,0.00,,---,0.00,VWS V14.01,2013-08-04 15:57:00,
2013-08-04 09:58:00,66.0,49.9,25.28,ESE,118,8.7,8.7,56,0.00,,---,0.00,VWS V14.01,2013-08-04 15:58:00,
2013-08-04 10:02:00,66.2,49.1,25.28,ESE,105,5.4,5.4,54,0.00,,---,0.00,VWS V14.01,2013-08-04 16:02:00,
2013-08-04 10:03:00,66.2,49.1,25.28,SE,132,2.7,2.7,54,0.00,,---,0.00,VWS V14.01,2013-08-04 16:03:00,
2013-08-04 10:06:00,66.2,49.1,25.28,South,181,2.2,3.1,54,0.00,,---,0.00,VWS V14.01,2013-08-04 16:06:00,
2013-08-04 10:07:00,66.2,49.1,25.28,ENE,67,3.6,3.6,54,0.00,,---,0.00,VWS V14.01,2013-08-04 16:07:00,
2013-08-04 10:08:00,66.2,49.1,25.28,ENE,67,3.6,3.6,54,0.00,,---,0.00,VWS V14.01,2013-08-04 16:08:00,
2013-08-04 10:12:00,66.6,47.9,25.28,ENE,61,3.6,3.6,51,0.00,,---,0.00,VWS V14.01,2013-08-04 16:12:00,
2013-08-04 10:15:00,66.6,47.9,25.28,ESE,114,2.2,4.9,51,0.00,,---,0.00,VWS V14.01,2013-08-04 16:15:00,
2013-08-04 10:16:00,66.7,48.6,25.28,ESE,114,2.2,2.2,52,0.00,,---,0.00,VWS V14.01,2013-08-04 16:16:00,
2013-08-04 10:17:00,66.7,48.6,25.28,ESE,122,3.1,3.1,52,0.00,,---,0.00,VWS V14.01,2013-08-04 16:17:00,
2013-08-04 10:20:00,66.7,48.6,25.28,SE,145,0.0,0.0,52,0.00,,---,0.00,VWS V14.01,2013-08-04 16:20:00,
2013-08-04 10:21:00,66.7,48.6,25.28,SSE,151,2.7,2.7,52,0.00,,---,0.00,VWS V14.01,2013-08-04 16:21:00,
2013-08-04 10:22:00,67.3,47.5,25.28,SW,230,2.7,5.8,49,0.00,,---,0.00,VWS V14.01,2013-08-04 16:22:00,
2013-08-04 10:24:00,67.3,47.5,25.28,SE,140,4.0,4.0,49,0.00,,---,0.00,VWS V14.01,2013-08-04 16:24:00,
2013-08-04 10:27:00,67.3,47.5,25.28,NNE,28,3.1,4.0,49,0.00,,---,0.00,VWS V14.01,2013-08-04 16:27:00,
2013-08-04 10:28:00,68.0,47.0,25.28,NNE,28,3.1,3.1,47,0.00,,---,0.00,VWS V14.01,2013-08-04 16:28:00,
2013-08-04 10:31:00,68.2,47.2,25.28,ENE,63,7.6,7.6,47,0.00,,---,0.00,VWS V14.01,2013-08-04 16:31:00,
2013-08-04 10:33:00,68.2,47.2,25.28,SE,126,4.0,7.6,47,0.00,,---,0.00,VWS V14.01,2013-08-04 16:33:00,
2013-08-04 10:35:00,68.2,47.2,25.28,SSE,162,2.2,2.2,47,0.00,,---,0.00,VWS V14.01,2013-08-04 16:35:00,
2013-08-04 10:38:00,68.5,46.4,25.28,SE,139,4.9,4.9,45,0.00,,---,0.00,VWS V14.01,2013-08-04 16:38:00,
2013-08-04 10:39:00,68.5,46.4,25.28,SE,139,4.9,4.9,45,0.00,,---,0.00,VWS V14.01,2013-08-04 16:39:00,
2013-08-04 10:44:00,69.1,49.1,25.28,East,90,3.1,4.0,49,0.00,,---,0.00,VWS V14.01,2013-08-04 16:44:00,
2013-08-04 10:46:00,69.1,49.1,25.28,SE,130,5.4,5.4,49,0.00,,---,0.00,VWS V14.01,2013-08-04 16:46:00,
2013-08-04 10:47:00,69.1,49.1,25.28,East,98,3.6,5.4,49,0.00,,---,0.00,VWS V14.01,2013-08-04 16:47:00,
2013-08-04 10:48:00,69.1,49.1,25.28,East,98,3.6,3.6,49,0.00,,---,0.00,VWS V14.01,2013-08-04 16:48:00,
2013-08-04 10:52:00,69.1,49.1,25.28,ESE,112,4.9,4.9,49,0.00,,---,0.00,VWS V14.01,2013-08-04 16:52:00,
2013-08-04 10:53:00,69.1,49.1,25.28,East,89,5.4,5.4,49,0.00,,---,0.00,VWS V14.01,2013-08-04 16:53:00,
2013-08-04 10:55:00,69.1,49.1,25.28,East,89,5.4,5.4,49,0.00,,---,0.00,VWS V14.01,2013-08-04 16:55:00,
2013-08-04 10:56:00,69.1,49.1,25.28,ENE,78,2.7,5.4,49,0.00,,---,0.00,VWS V14.01,2013-08-04 16:56:00,
2013-08-04 10:58:00,69.3,47.0,25.28,ENE,78,4.0,4.0,45,0.00,,---,0.00,VWS V14.01,2013-08-04 16:58:00,
2013-08-04 10:59:00,69.3,47.0,25.28,ENE,78,4.0,4.0,45,0.00,,---,0.00,VWS V14.01,2013-08-04 16:59:00,
2013-08-04 11:03:00,69.3,47.0,25.28,ESE,123,2.7,2.7,45,0.00,,---,0.00,VWS V14.01,2013-08-04 17:03:00,
2013-08-04 11:04:00,69.3,47.0,25.28,NE,50,2.7,3.1,45,0.00,,---,0.00,VWS V14.01,2013-08-04 17:04:00,
2013-08-04 11:11:00,70.3,45.5,25.28,ENE,78,3.1,3.1,41,0.00,,---,0.00,VWS V14.01,2013-08-04 17:11:00,
2013-08-04 11:12:00,70.3,45.5,25.28,SE,140,5.8,5.8,41,0.00,,---,0.00,VWS V14.01,2013-08-04 17:12:00,
2013-08-04 11:16:00,71.1,44.9,25.28,South,182,5.8,5.8,39,0.00,,---,0.00,VWS V14.01,2013-08-04 17:16:00,
2013-08-04 11:19:00,71.1,44.9,25.28,NE,50,0.0,5.8,39,0.00,,---,0.00,VWS V14.01,2013-08-04 17:19:00,
2013-08-04 11:20:00,71.1,44.9,25.28,NE,52,3.1,5.4,39,0.00,,---,0.00,VWS V14.01,2013-08-04 17:20:00,
2013-08-04 11:22:00,71.8,46.8,25.28,NE,51,4.0,4.0,41,0.00,,---,0.00,VWS V14.01,2013-08-04 17:22:00,
2013-08-04 11:25:00,71.8,46.8,25.25,ESE,114,0.0,0.0,41,0.00,,---,0.00,VWS V14.01,2013-08-04 17:25:00,
2013-08-04 11:26:00,72.3,45.3,25.25,ESE,114,0.0,0.0,38,0.00,,---,0.00,VWS V14.01,2013-08-04 17:26:00,
2013-08-04 11:29:00,72.3,45.3,25.25,ESE,116,8.7,8.7,38,0.00,,---,0.00,VWS V14.01,2013-08-04 17:29:00,
2013-08-04 11:30:00,72.9,45.8,25.25,ESE,103,2.7,8.7,38,0.00,,---,0.00,VWS V14.01,2013-08-04 17:30:00,
2013-08-04 11:33:00,72.9,45.8,25.25,South,173,3.6,8.3,38,0.00,,---,0.00,VWS V14.01,2013-08-04 17:33:00,
2013-08-04 11:36:00,72.9,45.8,25.25,SSW,211,3.1,8.3,38,0.00,,---,0.00,VWS V14.01,2013-08-04 17:36:00,
2013-08-04 11:37:00,72.9,45.8,25.25,SSW,203,5.4,5.4,38,0.00,,---,0.00,VWS V14.01,2013-08-04 17:37:00,
2013-08-04 11:38:00,72.9,45.8,25.25,SSW,203,5.4,5.4,38,0.00,,---,0.00,VWS V14.01,2013-08-04 17:38:00,
2013-08-04 11:39:00,72.9,45.8,25.25,WSW,244,5.4,5.4,38,0.00,,---,0.00,VWS V14.01,2013-08-04 17:39:00,
2013-08-04 11:43:00,73.4,43.3,25.25,SW,223,2.7,3.1,34,0.00,,---,0.00,VWS V14.01,2013-08-04 17:43:00,
2013-08-04 11:45:00,73.4,43.3,25.25,ESE,108,3.6,3.6,34,0.00,,---,0.00,VWS V14.01,2013-08-04 17:45:00,
2013-08-04 11:46:00,73.4,43.3,25.25,WSW,249,2.7,3.6,34,0.00,,---,0.00,VWS V14.01,2013-08-04 17:46:00,
2013-08-04 11:47:00,73.4,43.3,25.25,SE,144,11.9,11.9,34,0.00,,---,0.00,VWS V14.01,2013-08-04 17:47:00,
2013-08-04 11:49:00,73.6,44.3,25.25,South,181,3.1,3.1,35,0.00,,---,0.00,VWS V14.01,2013-08-04 17:49:00,
2013-08-04 11:51:00,73.6,43.5,25.25,South,187,3.1,3.1,34,0.00,,---,0.00,VWS V14.01,2013-08-04 17:51:00,
2013-08-04 11:54:00,73.2,43.2,25.25,SSE,163,5.8,5.8,34,0.00,,---,0.00,VWS V14.01,2013-08-04 17:54:00,
2013-08-04 11:55:00,73.2,43.2,25.25,East,84,3.6,5.8,34,0.00,,---,0.00,VWS V14.01,2013-08-04 17:55:00,
2013-08-04 11:57:00,73.2,43.2,25.25,SSW,201,3.1,3.1,34,0.00,,---,0.00,VWS V14.01,2013-08-04 17:57:00,
2013-08-04 11:58:00,73.0,44.5,25.25,SSW,201,3.1,3.1,36,0.00,,---,0.00,VWS V14.01,2013-08-04 17:58:00,
2013-08-04 12:02:00,73.2,45.4,25.25,SSW,213,4.0,4.0,37,0.00,,---,0.00,VWS V14.01,2013-08-04 18:02:00,
2013-08-04 12:05:00,73.2,45.4,25.25,SSE,160,3.1,3.1,37,0.00,,---,0.00,VWS V14.01,2013-08-04 18:05:00,
2013-08-04 12:06:00,73.2,45.4,25.25,ESE,114,6.3,6.3,37,0.00,,---,0.00,VWS V14.01,2013-08-04 18:06:00,
2013-08-04 12:08:00,73.2,45.4,25.25,SSE,167,2.2,2.2,37,0.00,,---,0.00,VWS V14.01,2013-08-04 18:08:00,
2013-08-04 12:11:00,73.2,45.4,25.25,NE,51,2.7,2.7,37,0.00,,---,0.00,VWS V14.01,2013-08-04 18:11:00,
2013-08-04 12:14:00,73.2,45.4,25.25,East,82,4.9,4.9,37,0.00,,---,0.00,VWS V14.01,2013-08-04 18:14:00,
2013-08-04 12:16:00,73.4,44.1,25.25,East,82,4.9,4.9,35,0.00,,---,0.00,VWS V14.01,2013-08-04 18:16:00,
2013-08-04 12:17:00,73.4,44.1,25.25,East,82,4.9,4.9,35,0.00,,---,0.00,VWS V14.01,2013-08-04 18:17:00,
2013-08-04 12:18:00,73.4,44.1,25.25,East,82,4.9,4.9,35,0.00,,---,0.00,VWS V14.01,2013-08-04 18:18:00,
2013-08-04 12:20:00,73.4,44.1,25.25,East,94,5.8,5.8,35,0.00,,---,0.00,VWS V14.01,2013-08-04 18:20:00,
2013-08-04 12:22:00,73.4,44.1,25.25,ENE,62,2.2,5.8,35,0.00,,---,0.00,VWS V14.01,2013-08-04 18:22:00,
2013-08-04 12:23:00,73.4,44.1,25.25,NE,42,3.6,3.6,35,0.00,,---,0.00,VWS V14.01,2013-08-04 18:23:00,
2013-08-04 12:24:00,72.9,44.4,25.25,NE,42,3.6,3.6,36,0.00,,---,0.00,VWS V14.01,2013-08-04 18:24:00,
2013-08-04 12:25:00,72.9,44.4,25.25,SE,125,5.8,5.8,36,0.00,,---,0.00,VWS V14.01,2013-08-04 18:25:00,
2013-08-04 12:28:00,72.7,46.3,25.25,SE,125,5.8,5.8,39,0.00,,---,0.00,VWS V14.01,2013-08-04 18:28:00,
2013-08-04 12:29:00,72.7,46.3,25.25,ENE,78,3.1,3.1,39,0.00,,---,0.00,VWS V14.01,2013-08-04 18:29:00,
2013-08-04 12:31:00,72.7,46.3,25.25,ENE,78,3.1,3.1,39,0.00,,---,0.00,VWS V14.01,2013-08-04 18:31:00,
2013-08-04 12:32:00,72.7,46.3,25.25,SE,130,4.0,4.0,39,0.00,,---,0.00,VWS V14.01,2013-08-04 18:32:00,
2013-08-04 12:33:00,72.7,46.3,25.25,East,93,5.4,5.4,39,0.00,,---,0.00,VWS V14.01,2013-08-04 18:33:00,
2013-08-04 12:36:00,72.7,44.2,25.25,East,93,5.4,5.4,36,0.00,,---,0.00,VWS V14.01,2013-08-04 18:36:00,
2013-08-04 12:38:00,72.5,44.8,25.25,NE,53,3.1,3.1,37,0.00,,---,0.00,VWS V14.01,2013-08-04 18:38:00,
2013-08-04 12:40:00,72.3,43.2,25.25,ENE,68,6.3,6.3,35,0.00,,---,0.00,VWS V14.01,2013-08-04 18:40:00,
2013-08-04 12:42:00,72.3,43.2,25.25,ESE,117,4.5,4.5,35,0.00,,---,0.00,VWS V14.01,2013-08-04 18:42:00,
2013-08-04 12:45:00,72.1,45.2,25.25,ENE,71,3.6,3.6,38,0.00,,---,0.00,VWS V14.01,2013-08-04 18:45:00,
2013-08-04 12:46:00,72.0,45.0,25.25,NE,42,3.6,3.6,38,0.00,,---,0.00,VWS V14.01,2013-08-04 18:46:00,
2013-08-04 12:49:00,72.0,45.0,25.25,NE,50,4.9,4.9,38,0.00,,---,0.00,VWS V14.01,2013-08-04 18:49:00,
2013-08-04 12:53:00,71.8,44.1,25.22,SE,127,8.3,8.3,37,0.00,,---,0.00,VWS V14.01,2013-08-04 18:53:00,
2013-08-04 12:54:00,71.8,44.1,25.22,East,91,7.6,8.3,37,0.00,,---,0.00,VWS V14.01,2013-08-04 18:54:00,
2013-08-04 12:55:00,71.8,43.4,25.22,East,88,0.0,7.6,36,0.00,,---,0.00,VWS V14.01,2013-08-04 18:55:00,
2013-08-04 12:57:00,71.8,43.4,25.22,ESE,112,2.2,2.2,36,0.00,,---,0.00,VWS V14.01,2013-08-04 18:57:00,
2013-08-04 12:59:00,71.8,44.1,25.22,NE,44,5.8,5.8,37,0.00,,---,0.00,VWS V14.01,2013-08-04 18:59:00,
2013-08-04 13:01:00,71.8,44.1,25.22,NE,44,2.2,6.3,37,0.00,,---,0.00,VWS V14.01,2013-08-04 19:01:00,
2013-08-04 13:02:00,71.8,46.8,25.22,NE,44,2.2,2.2,41,0.00,,---,0.00,VWS V14.01,2013-08-04 19:02:00,
2013-08-04 13:05:00,71.8,46.8,25.22,ENE,61,5.4,5.4,41,0.00,,---,0.00,VWS V14.01,2013-08-04 19:05:00,
2013-08-04 13:07:00,71.8,46.8,25.22,NNE,23,5.8,5.8,41,0.00,,---,0.00,VWS V14.01,2013-08-04 19:07:00,
2013-08-04 13:08:00,71.8,46.8,25.22,East,87,4.0,5.8,41,0.00,,---,0.00,VWS V14.01,2013-08-04 19:08:00,
2013-08-04 13:09:00,71.8,46.8,25.22,NE,38,3.1,3.1,41,0.00,,---,0.00,VWS V14.01,2013-08-04 19:09:00,
2013-08-04 13:12:00,71.8,46.8,25.22,ENE,74,3.6,6.3,41,0.00,,---,0.00,VWS V14.01,2013-08-04 19:12:00,
2013-08-04 13:13:00,71.8,46.8,25.22,ENE,74,3.6,3.6,41,0.00,,---,0.00,VWS V14.01,2013-08-04 19:13:00,
2013-08-04 13:14:00,71.8,46.8,25.22,ENE,57,2.7,5.4,41,0.00,,---,0.00,VWS V14.01,2013-08-04 19:14:00,
2013-08-04 13:18:00,71.8,46.8,25.22,NNW,345,2.7,2.7,41,0.00,,---,0.00,VWS V14.01,2013-08-04 19:18:00,
2013-08-04 13:20:00,71.8,46.8,25.22,NNW,348,2.7,2.7,41,0.00,,---,0.00,VWS V14.01,2013-08-04 19:20:00,
2013-08-04 13:22:00,72.5,48.1,25.22,NNW,346,3.6,3.6,42,0.00,,---,0.00,VWS V14.01,2013-08-04 19:22:00,
2013-08-04 13:23:00,72.5,48.1,25.22,NNW,346,3.6,3.6,42,0.00,,---,0.00,VWS V14.01,2013-08-04 19:23:00,
2013-08-04 13:25:00,72.9,48.5,25.22,North,11,4.0,4.0,42,0.00,,---,0.00,VWS V14.01,2013-08-04 19:25:00,
2013-08-04 13:28:00,72.9,48.5,25.22,NE,36,3.1,3.1,42,0.00,,---,0.00,VWS V14.01,2013-08-04 19:28:00,
2013-08-04 13:30:00,72.9,48.5,25.22,NNW,343,0.0,3.6,42,0.00,,---,0.00,VWS V14.01,2013-08-04 19:30:00,
2013-08-04 13:34:00,72.9,48.5,25.22,NNW,343,2.2,2.2,42,0.00,,---,0.00,VWS V14.01,2013-08-04 19:34:00,
2013-08-04 13:35:00,72.9,48.5,25.22,NNW,344,0.0,2.2,42,0.00,,---,0.00,VWS V14.01,2013-08-04 19:35:00,
2013-08-04 13:39:00,72.9,48.5,25.22,NNE,24,0.0,2.7,42,0.00,,---,0.00,VWS V14.01,2013-08-04 19:39:00,
2013-08-04 13:41:00,72.9,48.5,25.22,NNW,327,0.0,0.0,42,0.00,,---,0.00,VWS V14.01,2013-08-04 19:41:00,
2013-08-04 13:43:00,72.9,48.5,25.22,NW,322,0.0,0.0,42,0.00,,---,0.00,VWS V14.01,2013-08-04 19:43:00,
2013-08-04 13:45:00,72.5,48.8,25.22,NW,322,0.0,0.0,43,0.00,,---,0.00,VWS V14.01,2013-08-04 19:45:00,
2013-08-04 13:46:00,72.5,48.8,25.22,NNW,334,2.2,2.2,43,0.00,,---,0.00,VWS V14.01,2013-08-04 19:46:00,
2013-08-04 13:48:00,72.5,48.8,25.22,NNE,31,2.2,2.2,43,0.00,,---,0.00,VWS V14.01,2013-08-04 19:48:00,
2013-08-04 13:53:00,72.3,48.0,25.22,North,5,0.0,0.0,42,0.00,,---,0.00,VWS V14.01,2013-08-04 19:53:00,
2013-08-04 13:55:00,72.3,48.0,25.22,ENE,61,2.2,3.1,42,0.00,,---,0.00,VWS V14.01,2013-08-04 19:55:00,
2013-08-04 13:57:00,72.1,48.4,25.22,ENE,61,2.2,2.2,43,0.00,,---,0.00,VWS V14.01,2013-08-04 19:57:00,
2013-08-04 13:59:00,72.0,48.3,25.22,ESE,114,2.7,2.7,43,0.00,,---,0.00,VWS V14.01,2013-08-04 19:59:00,
2013-08-04 14:00:00,72.0,48.3,25.22,East,99,3.1,3.1,43,0.00,,---,0.00,VWS V14.01,2013-08-04 20:00:00,
2013-08-04 14:04:00,71.6,47.9,25.22,East,89,3.6,3.6,43,0.00,,---,0.00,VWS V14.01,2013-08-04 20:04:00,
2013-08-04 14:05:00,71.6,47.9,25.22,East,89,3.6,3.6,43,0.00,,---,0.00,VWS V14.01,2013-08-04 20:05:00,
2013-08-04 14:07:00,71.6,47.9,25.22,NNE,12,3.1,3.1,43,0.00,,---,0.00,VWS V14.01,2013-08-04 20:07:00,
2013-08-04 14:09:00,71.4,52.4,25.22,NNW,342,2.7,2.7,51,0.00,,---,0.00,VWS V14.01,2013-08-04 20:09:00,
2013-08-04 14:11:00,71.4,55.4,25.22,NNW,345,0.0,3.1,57,0.00,,---,0.00,VWS V14.01,2013-08-04 20:11:00,
2013-08-04 14:12:00,71.4,55.4,25.22,NNW,345,0.0,0.0,57,0.00,,---,0.00,VWS V14.01,2013-08-04 20:12:00,
2013-08-04 14:14:00,71.2,54.8,25.22,NE,37,3.6,3.6,56,0.00,,---,0.00,VWS V14.01,2013-08-04 20:14:00,
2013-08-04 14:18:00,71.2,54.8,25.22,NE,51,3.1,3.1,56,0.00,,---,0.00,VWS V14.01,2013-08-04 20:18:00,
2013-08-04 14:19:00,71.1,58.7,25.22,NE,51,3.1,3.1,65,0.00,,---,0.00,VWS V14.01,2013-08-04 20:19:00,
2013-08-04 14:24:00,70.9,58.5,25.22,NE,49,2.2,3.6,65,0.00,,---,0.00,VWS V14.01,2013-08-04 20:24:00,
2013-08-04 14:25:00,70.7,58.4,25.22,NE,49,2.2,2.2,65,0.00,,---,0.00,VWS V14.01,2013-08-04 20:25:00,
2013-08-04 14:26:00,70.7,58.4,25.22,NE,37,2.7,2.7,65,0.00,,---,0.00,VWS V14.01,2013-08-04 20:26:00,
2013-08-04 14:27:00,70.7,59.2,25.22,NE,37,2.2,2.7,67,0.00,,---,0.00,VWS V14.01,2013-08-04 20:27:00,
2013-08-04 14:29:00,70.7,59.2,25.22,NE,41,0.0,2.7,67,0.00,,---,0.00,VWS V14.01,2013-08-04 20:29:00,
2013-08-04 14:30:00,70.7,59.6,25.22,NE,41,0.0,0.0,68,0.00,,---,0.00,VWS V14.01,2013-08-04 20:30:00,
2013-08-04 14:33:00,70.7,59.6,25.22,NE,35,0.0,2.7,68,0.00,,---,0.00,VWS V14.01,2013-08-04 20:33:00,
2013-08-04 14:35:00,70.7,59.2,25.22,NE,35,2.2,2.2,67,0.00,,---,0.00,VWS V14.01,2013-08-04 20:35:00,
2013-08-04 14:37:00,70.7,59.2,25.22,NE,35,0.0,2.2,67,0.00,,---,0.00,VWS V14.01,2013-08-04 20:37:00,
2013-08-04 14:40:00,70.7,58.8,25.22,NE,35,3.1,3.1,66,0.00,,---,0.00,VWS V14.01,2013-08-04 20:40:00,
2013-08-04 14:43:00,70.3,56.7,25.22,NE,38,4.0,4.0,62,0.00,,---,0.00,VWS V14.01,2013-08-04 20:43:00,
2013-08-04 14:45:00,70.3,56.7,25.22,NE,37,2.7,4.0,62,0.00,,---,0.00,VWS V14.01,2013-08-04 20:45:00,
2013-08-04 14:49:00,70.0,57.3,25.22,NNE,12,2.7,2.7,64,0.00,,---,0.00,VWS V14.01,2013-08-04 20:49:00,
2013-08-04 14:51:00,70.0,57.3,25.22,North,11,0.0,2.7,64,0.00,,---,0.00,VWS V14.01,2013-08-04 20:51:00,
2013-08-04 14:52:00,70.0,57.3,25.22,SE,127,3.1,3.1,64,0.00,,---,0.00,VWS V14.01,2013-08-04 20:52:00,
2013-08-04 14:55:00,69.8,57.1,25.22,ESE,113,2.7,3.6,64,0.00,,---,0.00,VWS V14.01,2013-08-04 20:55:00,
2013-08-04 14:57:00,69.8,57.1,25.22,East,84,2.7,2.7,64,0.00,,---,0.00,VWS V14.01,2013-08-04 20:57:00,
2013-08-04 14:58:00,69.6,56.9,25.22,ENE,77,2.7,2.7,64,0.00,,---,0.00,VWS V14.01,2013-08-04 20:58:00,
2013-08-04 15:01:00,69.6,56.9,25.19,East,88,2.7,2.7,64,0.00,,---,0.00,VWS V14.01,2013-08-04 21:01:00,
2013-08-04 15:03:00,69.6,56.9,25.19,East,88,0.0,0.0,64,0.00,,---,0.00,VWS V14.01,2013-08-04 21:03:00,
2013-08-04 15:07:00,69.4,56.3,25.19,SE,130,2.2,3.6,63,0.00,,---,0.00,VWS V14.01,2013-08-04 21:07:00,
2013-08-04 15:08:00,69.4,56.8,25.19,East,79,2.7,2.7,64,0.00,,---,0.00,VWS V14.01,2013-08-04 21:08:00,
2013-08-04 15:09:00,69.4,56.8,25.19,East,79,2.2,2.7,64,0.00,,---,0.00,VWS V14.01,2013-08-04 21:09:00,
2013-08-04 15:13:00,69.4,56.8,25.19,East,83,0.0,2.2,64,0.00,,---,0.00,VWS V14.01,2013-08-04 21:13:00,
2013-08-04 15:15:00,69.6,57.8,25.19,East,83,0.0,0.0,66,0.00,,---,0.00,VWS V14.01,2013-08-04 21:15:00,
2013-08-04 15:16:00,69.6,57.8,25.19,East,83,0.0,0.0,66,0.00,,---,0.00,VWS V14.01,2013-08-04 21:16:00,
2013-08-04 15:19:00,69.8,57.9,25.19,East,83,0.0,0.0,66,0.00,,---,0.00,VWS V14.01,2013-08-04 21:19:00,
2013-08-04 15:21:00,69.8,57.9,25.19,ENE,67,3.6,3.6,66,0.00,,---,0.00,VWS V14.01,2013-08-04 21:21:00,
2013-08-04 15:23:00,69.8,57.1,25.19,ENE,67,2.2,2.2,64,0.00,,---,0.00,VWS V14.01,2013-08-04 21:23:00,
2013-08-04 15:24:00,69.6,56.9,25.19,NE,47,2.7,3.1,64,0.00,,---,0.00,VWS V14.01,2013-08-04 21:24:00,
2013-08-04 15:27:00,69.6,56.9,25.19,East,88,0.0,0.0,64,0.00,,---,0.00,VWS V14.01,2013-08-04 21:27:00,
2013-08-04 15:28:00,69.6,56.9,25.19,ESE,104,4.0,4.0,64,0.00,,---,0.00,VWS V14.01,2013-08-04 21:28:00,
2013-08-04 15:32:00,68.9,56.7,25.19,ESE,111,3.6,3.6,65,0.00,,---,0.00,VWS V14.01,2013-08-04 21:32:00,
2013-08-04 15:34:00,68.7,56.5,25.22,East,87,3.1,3.1,65,0.00,,---,0.00,VWS V14.01,2013-08-04 21:34:00,
2013-08-04 15:35:00,68.5,56.7,25.22,East,95,3.1,3.6,66,0.00,,---,0.00,VWS V14.01,2013-08-04 21:35:00,
2013-08-04 15:37:00,68.5,56.7,25.22,East,83,3.1,3.1,66,0.00,,---,0.00,VWS V14.01,2013-08-04 21:37:00,
2013-08-04 15:39:00,68.2,56.8,25.22,East,84,2.7,2.7,67,0.00,,---,0.00,VWS V14.01,2013-08-04 21:39:00,
2013-08-04 15:42:00,68.2,56.8,25.22,SE,133,2.2,2.2,67,0.00,,---,0.00,VWS V14.01,2013-08-04 21:42:00,
2013-08-04 15:43:00,68.0,56.7,25.22,SE,133,2.2,2.2,67,0.00,,---,0.00,VWS V14.01,2013-08-04 21:43:00,
2013-08-04 15:44:00,68.0,56.7,25.22,SE,133,2.2,2.2,67,0.00,,---,0.00,VWS V14.01,2013-08-04 21:44:00,
2013-08-04 15:48:00,67.8,57.3,25.22,NNE,19,2.2,3.1,69,0.00,,---,0.00,VWS V14.01,2013-08-04 21:48:00,
2013-08-04 15:50:00,67.8,57.3,25.22,NE,51,3.1,3.1,69,0.00,,---,0.00,VWS V14.01,2013-08-04 21:50:00,
2013-08-04 15:52:00,67.6,56.3,25.22,NE,36,5.4,5.4,67,0.00,,---,0.00,VWS V14.01,2013-08-04 21:52:00,
2013-08-04 15:54:00,67.6,56.3,25.22,NW,320,3.1,5.4,67,0.00,,---,0.00,VWS V14.01,2013-08-04 21:54:00,
2013-08-04 15:58:00,67.5,56.1,25.22,NE,40,0.0,0.0,67,0.00,,---,0.00,VWS V14.01,2013-08-04 21:58:00,
2013-08-04 15:59:00,67.5,56.1,25.22,NE,40,0.0,0.0,67,0.00,,---,0.00,VWS V14.01,2013-08-04 21:59:00,
2013-08-04 16:00:00,67.5,56.1,25.22,East,89,3.1,3.1,67,0.00,,---,0.00,VWS V14.01,2013-08-04 22:00:00,
2013-08-04 16:04:00,67.3,56.0,25.22,ENE,59,6.3,6.3,67,0.00,,---,0.00,VWS V14.01,2013-08-04 22:04:00,
2013-08-04 16:07:00,66.9,56.0,25.22,SE,125,3.6,3.6,68,0.00,,---,0.00,VWS V14.01,2013-08-04 22:07:00,
2013-08-04 16:09:00,66.9,55.6,25.22,SE,125,3.6,3.6,67,0.00,,---,0.00,VWS V14.01,2013-08-04 22:09:00,
2013-08-04 16:11:00,66.9,55.6,25.22,SE,125,3.6,3.6,67,0.00,,---,0.00,VWS V14.01,2013-08-04 22:11:00,
2013-08-04 16:13:00,66.7,55.5,25.22,SE,125,3.6,3.6,67,0.00,,---,0.00,VWS V14.01,2013-08-04 22:13:00,
2013-08-04 16:17:00,66.7,55.5,25.22,ENE,62,2.2,2.2,67,0.00,,---,0.00,VWS V14.01,2013-08-04 22:17:00,
2013-08-04 16:18:00,66.7,55.5,25.22,ENE,62,2.2,2.2,67,0.00,,---,0.00,VWS V14.01,2013-08-04 22:18:00,
2013-08-04 16:22:00,66.7,55.8,25.22,ESE,120,3.1,3.1,68,0.00,,---,0.00,VWS V14.01,2013-08-04 22:22:00,
2013-08-04 16:23:00,66.6,55.7,25.22,East,81,3.6,5.8,68,0.00,,---,0.00,VWS V14.01,2013-08-04 22:23:00,
2013-08-04 16:24:00,66.6,55.7,25.22,ESE,110,7.6,7.6,68,0.00,,---,0.00,VWS V14.01,2013-08-04 22:24:00,
2013-08-04 16:28:00,66.6,55.7,25.22,SE,142,4.0,4.0,68,0.00,,---,0.00,VWS V14.01,2013-08-04 22:28:00,
2013-08-04 16:30:00,66.6,55.7,25.22,ESE,109,5.4,5.4,68,0.00,,---,0.00,VWS V14.01,2013-08-04 22:30:00,
2013-08-04 16:32:00,66.4,55.5,25.22,East,90,3.6,3.6,68,0.00,,---,0.00,VWS V14.01,2013-08-04 22:32:00,
2013-08-04 16:36:00,66.2,55.7,25.22,East,97,3.6,4.0,69,0.00,,---,0.00,VWS V14.01,2013-08-04 22:36:00,
2013-08-04 16:37:00,66.2,55.7,25.22,ESE,102,3.1,3.6,69,0.00,,---,0.00,VWS V14.01,2013-08-04 22:37:00,
2013-08-04 16:39:00,66.2,56.1,25.22,East,89,2.7,4.9,70,0.00,,---,0.00,VWS V14.01,2013-08-04 22:39:00,
2013-08-04 16:41:00,66.0,56.0,25.22,East,84,5.4,6.3,70,0.00,,---,0.00,VWS V14.01,2013-08-04 22:41:00,
2013-08-04 16:43:00,66.0,56.0,25.22,ENE,62,2.7,2.7,70,0.00,,---,0.00,VWS V14.01,2013-08-04 22:43:00,
2013-08-04 16:44:00,66.0,56.0,25.22,SE,136,3.1,3.1,70,0.00,,---,0.00,VWS V14.01,2013-08-04 22:44:00,
2013-08-04 16:45:00,66.0,56.4,25.22,East,93,3.6,5.4,71,0.00,,---,0.00,VWS V14.01,2013-08-04 22:45:00,
2013-08-04 16:50:00,65.8,56.2,25.22,ESE,106,2.7,3.1,71,0.00,,---,0.00,VWS V14.01,2013-08-04 22:50:00,
2013-08-04 16:51:00,65.8,56.2,25.22,ESE,107,3.6,3.6,71,0.00,,---,0.00,VWS V14.01,2013-08-04 22:51:00,
2013-08-04 16:53:00,65.7,56.0,25.22,SSE,166,0.0,0.0,71,0.00,,---,0.00,VWS V14.01,2013-08-04 22:53:00,
2013-08-04 16:56:00,65.7,56.4,25.22,ESE,110,6.3,6.3,72,0.00,,---,0.00,VWS V14.01,2013-08-04 22:56:00,
2013-08-04 16:57:00,65.7,56.4,25.22,ESE,110,6.3,6.3,72,0.00,,---,0.00,VWS V14.01,2013-08-04 22:57:00,
2013-08-04 17:01:00,65.5,56.2,25.22,East,90,4.0,5.4,72,0.00,,---,0.00,VWS V14.01,2013-08-04 23:01:00,
2013-08-04 17:02:00,65.5,56.2,25.22,SE,136,3.6,4.0,72,0.00,,---,0.00,VWS V14.01,2013-08-04 23:02:00,
2013-08-04 17:08:00,65.3,56.8,25.25,East,96,3.6,3.6,74,0.00,,---,0.00,VWS V14.01,2013-08-04 23:08:00,
2013-08-04 17:10:00,65.1,56.6,25.25,ENE,57,0.0,2.7,74,0.00,,---,0.00,VWS V14.01,2013-08-04 23:10:00,
2013-08-04 17:12:00,65.1,57.0,25.25,ENE,66,0.0,0.0,75,0.00,,---,0.00,VWS V14.01,2013-08-04 23:12:00,
2013-08-04 17:15:00,65.1,57.0,25.25,ENE,66,0.0,0.0,75,0.00,,---,0.00,VWS V14.01,2013-08-04 23:15:00,
2013-08-04 17:16:00,64.9,56.8,25.25,East,93,0.0,0.0,75,0.00,,---,0.00,VWS V14.01,2013-08-04 23:16:00,
2013-08-04 17:21:00,64.8,57.4,25.22,East,94,4.0,4.0,77,0.00,,---,0.00,VWS V14.01,2013-08-04 23:21:00,
2013-08-04 17:24:00,64.8,57.0,25.22,East,94,0.0,0.0,76,0.00,,---,0.00,VWS V14.01,2013-08-04 23:24:00,
2013-08-04 17:26:00,64.6,57.2,25.22,East,94,0.0,0.0,77,0.00,,---,0.00,VWS V14.01,2013-08-04 23:26:00,
2013-08-04 17:28:00,64.6,57.2,25.22,East,94,0.0,0.0,77,0.00,,---,0.00,VWS V14.01,2013-08-04 23:28:00,
2013-08-04 17:29:00,64.6,57.2,25.22,East,94,2.7,2.7,77,0.00,,---,0.00,VWS V14.01,2013-08-04 23:29:00,
2013-08-04 17:32:00,64.4,57.0,25.22,SSE,151,3.1,3.1,77,0.00,,---,0.00,VWS V14.01,2013-08-04 23:32:00,
2013-08-04 17:34:00,64.2,57.2,25.22,SE,129,2.7,2.7,78,0.00,,---,0.00,VWS V14.01,2013-08-04 23:34:00,
2013-08-04 17:37:00,64.0,56.7,25.22,SE,144,2.2,4.9,77,0.00,,---,0.00,VWS V14.01,2013-08-04 23:37:00,
2013-08-04 17:38:00,64.0,56.7,25.22,SE,144,0.0,2.2,77,0.00,,---,0.00,VWS V14.01,2013-08-04 23:38:00,
2013-08-04 17:40:00,63.9,56.2,25.22,SW,214,2.2,2.7,76,0.00,,---,0.00,VWS V14.01,2013-08-04 23:40:00,
2013-08-04 17:41:00,63.9,56.2,25.22,SE,143,2.7,2.7,76,0.00,,---,0.00,VWS V14.01,2013-08-04 23:41:00,
2013-08-04 17:44:00,63.7,55.6,25.22,SSE,163,2.2,3.6,75,0.00,,---,0.00,VWS V14.01,2013-08-04 23:44:00,
2013-08-04 17:46:00,63.7,55.6,25.22,East,83,3.6,4.0,75,0.00,,---,0.00,VWS V14.01,2013-08-04 23:46:00,
2013-08-04 17:48:00,63.5,55.4,25.22,East,94,2.7,2.7,75,0.00,,---,0.00,VWS V14.01,2013-08-04 23:48:00,
2013-08-04 17:50:00,63.3,55.3,25.22,ESE,105,3.1,3.1,75,0.00,,---,0.00,VWS V14.01,2013-08-04 23:50:00,
2013-08-04 17:53:00,63.1,55.1,25.22,SSE,154,0.0,2.7,75,0.00,,---,0.00,VWS V14.01,2013-08-04 23:53:00,
2013-08-04 17:54:00,63.0,55.3,25.22,SSE,154,2.7,2.7,76,0.00,,---,0.00,VWS V14.01,2013-08-04 23:54:00,
2013-08-04 17:58:00,63.0,55.3,25.22,South,186,2.7,2.7,76,0.00,,---,0.00,VWS V14.01,2013-08-04 23:58:00,
2013-08-04 17:59:00,63.0,55.7,25.22,South,186,2.7,2.7,77,0.00,,---,0.00,VWS V14.01,2013-08-04 23:59:00,
2013-08-04 18:00:00,63.0,55.7,25.22,South,171,3.1,3.1,77,0.00,,---,0.00,VWS V14.01,2013-08-05 00:00:00,
2013-08-04 18:01:00,62.8,55.5,25.22,SSE,161,3.6,3.6,77,0.00,,---,0.00,VWS V14.01,2013-08-05 00:01:00,
2013-08-04 18:04:00,62.8,55.5,25.22,South,184,2.7,2.7,77,0.00,,---,0.00,VWS V14.01,2013-08-05 00:04:00,
2013-08-04 18:05:00,62.8,55.5,25.22,SSW,197,0.0,2.7,77,0.00,,---,0.00,VWS V14.01,2013-08-05 00:05:00,
2013-08-04 18:09:00,62.8,55.5,25.22,SSW,213,0.0,3.1,77,0.00,,---,0.00,VWS V14.01,2013-08-05 00:09:00,
2013-08-04 18:10:00,62.8,55.5,25.22,SSW,213,0.0,0.0,77,0.00,,---,0.00,VWS V14.01,2013-08-05 00:10:00,
2013-08-04 18:12:00,62.8,55.5,25.22,SW,223,4.0,4.0,77,0.00,,---,0.00,VWS V14.01,2013-08-05 00:12:00,
2013-08-04 18:14:00,62.8,55.1,25.22,ESE,104,2.2,3.1,76,0.00,,---,0.00,VWS V14.01,2013-08-05 00:14:00,
2013-08-04 18:17:00,62.8,55.1,25.22,SE,138,2.7,2.7,76,0.00,,---,0.00,VWS V14.01,2013-08-05 00:17:00,
2013-08-04 18:19:00,62.8,55.1,25.25,SE,139,2.7,3.1,76,0.00,,---,0.00,VWS V14.01,2013-08-05 00:19:00,
2013-08-04 18:20:00,62.8,55.1,25.25,SSE,156,2.2,2.7,76,0.00,,---,0.00,VWS V14.01,2013-08-05 00:20:00,
2013-08-04 18:23:00,62.6,55.3,25.25,SE,146,2.2,2.7,77,0.00,,---,0.00,VWS V14.01,2013-08-05 00:23:00,
2013-08-04 18:24:00,62.6,55.3,25.25,SE,127,3.1,3.6,77,0.00,,---,0.00,VWS V14.01,2013-08-05 00:24:00,
2013-08-04 18:27:00,62.6,56.0,25.25,SSE,159,2.2,3.1,79,0.00,,---,0.00,VWS V14.01,2013-08-05 00:27:00,
2013-08-04 18:28:00,62.4,55.8,25.25,SSE,159,2.2,2.2,79,0.00,,---,0.00,VWS V14.01,2013-08-05 00:28:00,
2013-08-04 18:29:00,62.4,55.8,25.25,SSE,152,2.7,2.7,79,0.00,,---,0.00,VWS V14.01,2013-08-05 00:29:00,
2013-08-04 18:30:00,62.4,56.2,25.25,SSE,166,0.0,0.0,80,0.00,,---,0.00,VWS V14.01,2013-08-05 00:30:00,
2013-08-04 18:32:00,62.4,56.2,25.25,SSE,150,2.2,3.1,80,0.00,,---,0.00,VWS V14.01,2013-08-05 00:32:00,
2013-08-04 18:34:00,62.4,56.2,25.25,SSE,150,0.0,0.0,80,0.00,,---,0.00,VWS V14.01,2013-08-05 00:34:00,
2013-08-04 18:35:00,62.4,56.2,25.25,SSW,199,2.2,2.7,80,0.00,,---,0.00,VWS V14.01,2013-08-05 00:35:00,
2013-08-04 18:38:00,62.4,56.5,25.25,SE,128,2.7,3.1,81,0.00,,---,0.00,VWS V14.01,2013-08-05 00:38:00,
2013-08-04 18:39:00,62.4,56.5,25.25,SE,128,2.7,2.7,81,0.00,,---,0.00,VWS V14.01,2013-08-05 00:39:00,
2013-08-04 18:40:00,62.4,56.5,25.25,SE,131,2.7,2.7,81,0.00,,---,0.00,VWS V14.01,2013-08-05 00:40:00,
2013-08-04 18:45:00,62.6,56.7,25.25,South,169,3.6,3.6,81,0.00,,---,0.00,VWS V14.01,2013-08-05 00:45:00,
2013-08-04 18:46:00,62.6,57.0,25.25,South,169,0.0,0.0,82,0.00,,---,0.00,VWS V14.01,2013-08-05 00:46:00,
2013-08-04 18:49:00,62.6,57.0,25.22,SSE,157,2.7,2.7,82,0.00,,---,0.00,VWS V14.01,2013-08-05 00:49:00,
2013-08-04 18:50:00,62.6,57.0,25.22,SE,145,3.6,3.6,82,0.00,,---,0.00,VWS V14.01,2013-08-05 00:50:00,
2013-08-04 18:54:00,62.8,57.2,25.22,SSE,148,0.0,2.7,82,0.00,,---,0.00,VWS V14.01,2013-08-05 00:54:00,
2013-08-04 18:56:00,63.0,57.0,25.22,South,177,2.2,3.1,81,0.00,,---,0.00,VWS V14.01,2013-08-05 00:56:00,
2013-08-04 18:57:00,63.0,57.0,25.22,SW,236,2.7,2.7,81,0.00,,---,0.00,VWS V14.01,2013-08-05 00:57:00,
2013-08-04 18:58:00,63.1,57.2,25.22,South,189,3.1,3.1,81,0.00,,---,0.00,VWS V14.01,2013-08-05 00:58:00,
2013-08-04 19:02:00,63.3,57.4,25.22,SE,135,2.7,2.7,81,0.00,,---,0.00,VWS V14.01,2013-08-05 01:02:00,
2013-08-04 19:03:00,63.3,57.0,25.22,SE,140,0.0,2.7,80,0.00,,---,0.00,VWS V14.01,2013-08-05 01:03:00,
2013-08-04 19:04:00,63.3,57.0,25.22,SE,144,3.6,3.6,80,0.00,,---,0.00,VWS V14.01,2013-08-05 01:04:00,
2013-08-04 19:07:00,63.3,56.0,25.22,SE,142,3.1,3.6,77,0.00,,---,0.00,VWS V14.01,2013-08-05 01:07:00,
2013-08-04 19:09:00,63.3,56.0,25.22,SSE,158,4.0,4.0,77,0.00,,---,0.00,VWS V14.01,2013-08-05 01:09:00,
2013-08-04 19:13:00,64.4,54.4,25.22,SE,140,2.7,2.7,70,0.00,,---,0.00,VWS V14.01,2013-08-05 01:13:00,
2013-08-04 19:14:00,64.4,54.4,25.22,ENE,77,3.6,3.6,70,0.00,,---,0.00,VWS V14.01,2013-08-05 01:14:00,
2013-08-04 19:16:00,64.4,54.4,25.22,SSW,211,3.6,3.6,70,0.00,,---,0.00,VWS V14.01,2013-08-05 01:16:00,
2013-08-04 19:17:00,64.2,53.8,25.22,SSW,204,4.0,5.4,69,0.00,,---,0.00,VWS V14.01,2013-08-05 01:17:00,
2013-08-04 19:19:00,64.2,53.0,25.22,SE,142,5.4,5.4,67,0.00,,---,0.00,VWS V14.01,2013-08-05 01:19:00,
2013-08-04 19:25:00,64.6,53.8,25.22,SE,136,2.7,2.7,68,0.00,,---,0.00,VWS V14.01,2013-08-05 01:25:00,
2013-08-04 19:26:00,64.4,54.0,25.22,South,179,2.7,3.6,69,0.00,,---,0.00,VWS V14.01,2013-08-05 01:26:00,
2013-08-04 19:28:00,64.4,54.0,25.22,SW,220,3.1,3.1,69,0.00,,---,0.00,VWS V14.01,2013-08-05 01:28:00,
2013-08-04 19:33:00,64.0,53.7,25.22,SE,136,4.0,4.0,69,0.00,,---,0.00,VWS V14.01,2013-08-05 01:33:00,
2013-08-04 19:34:00,63.9,53.5,25.25,SSE,157,0.0,4.0,69,0.00,,---,0.00,VWS V14.01,2013-08-05 01:34:00,
2013-08-04 19:35:00,63.9,53.5,25.25,SSE,165,3.1,4.0,69,0.00,,---,0.00,VWS V14.01,2013-08-05 01:35:00,
2013-08-04 19:36:00,63.9,53.5,25.25,SSE,161,3.6,3.6,69,0.00,,---,0.00,VWS V14.01,2013-08-05 01:36:00,
2013-08-04 19:40:00,63.9,53.5,25.25,South,178,2.2,2.2,69,0.00,,---,0.00,VWS V14.01,2013-08-05 01:40:00,
2013-08-04 19:41:00,63.9,53.5,25.25,South,178,0.0,2.2,69,0.00,,---,0.00,VWS V14.01,2013-08-05 01:41:00,
2013-08-04 19:43:00,64.0,53.7,25.25,SSE,168,2.7,3.6,69,0.00,,---,0.00,VWS V14.01,2013-08-05 01:43:00,
2013-08-04 19:44:00,64.0,53.7,25.25,SSE,168,0.0,2.7,69,0.00,,---,0.00,VWS V14.01,2013-08-05 01:44:00,
2013-08-04 19:46:00,63.9,53.1,25.25,SSE,157,3.6,3.6,68,0.00,,---,0.00,VWS V14.01,2013-08-05 01:46:00,
2013-08-04 19:48:00,63.9,53.1,25.25,SE,145,3.6,4.0,68,0.00,,---,0.00,VWS V14.01,2013-08-05 01:48:00,
2013-08-04 19:49:00,64.0,53.3,25.25,SE,140,2.2,4.0,68,0.00,,---,0.00,VWS V14.01,2013-08-05 01:49:00,
2013-08-04 19:51:00,64.0,53.3,25.25,SE,140,2.7,2.7,68,0.00,,---,0.00,VWS V14.01,2013-08-05 01:51:00,
2013-08-04 19:52:00,64.2,53.0,25.25,SSE,164,3.6,3.6,67,0.00,,---,0.00,VWS V14.01,2013-08-05 01:52:00,
2013-08-04 19:57:00,64.2,53.0,25.25,SSE,155,3.1,3.1,67,0.00,,---,0.00,VWS V14.01,2013-08-05 01:57:00,
2013-08-04 19:58:00,64.2,53.0,25.25,SSE,155,3.1,3.1,67,0.00,,---,0.00,VWS V14.01,2013-08-05 01:58:00,
2013-08-04 20:00:00,64.2,52.6,25.25,SE,138,2.7,4.9,66,0.00,,---,0.00,VWS V14.01,2013-08-05 02:00:00,
2013-08-04 20:01:00,64.2,52.6,25.25,SE,138,2.7,2.7,66,0.00,,---,0.00,VWS V14.01,2013-08-05 02:01:00,
2013-08-04 20:02:00,64.4,51.5,25.25,East,91,4.0,4.0,63,0.00,,---,0.00,VWS V14.01,2013-08-05 02:02:00,
2013-08-04 20:05:00,64.9,49.4,25.25,SE,137,3.1,8.3,57,0.00,,---,0.00,VWS V14.01,2013-08-05 02:05:00,
2013-08-04 20:07:00,65.5,50.3,25.25,SW,225,4.0,4.0,58,0.00,,---,0.00,VWS V14.01,2013-08-05 02:07:00,
2013-08-04 20:09:00,65.7,51.0,25.25,South,174,2.7,4.0,59,0.00,,---,0.00,VWS V14.01,2013-08-05 02:09:00,
2013-08-04 20:13:00,65.1,51.8,25.25,SSE,149,2.7,4.0,62,0.00,,---,0.00,VWS V14.01,2013-08-05 02:13:00,
2013-08-04 20:16:00,64.8,51.5,25.25,SSE,153,2.7,2.7,62,0.00,,---,0.00,VWS V14.01,2013-08-05 02:16:00,
2013-08-04 20:18:00,64.8,51.5,25.25,South,177,2.7,3.6,62,0.00,,---,0.00,VWS V14.01,2013-08-05 02:18:00,
2013-08-04 20:20:00,64.6,51.7,25.25,SSE,151,3.1,3.1,63,0.00,,---,0.00,VWS V14.01,2013-08-05 02:20:00,
2013-08-04 20:21:00,64.4,51.5,25.25,SSE,151,3.6,3.6,63,0.00,,---,0.00,VWS V14.01,2013-08-05 02:21:00,
2013-08-04 20:22:00,64.4,50.7,25.25,SSE,151,4.0,4.0,61,0.00,,---,0.00,VWS V14.01,2013-08-05 02:22:00,
2013-08-04 20:25:00,64.4,50.2,25.25,East,89,3.6,5.4,60,0.00,,---,0.00,VWS V14.01,2013-08-05 02:25:00,
2013-08-04 20:26:00,64.9,49.4,25.25,SSE,150,3.1,3.6,57,0.00,,---,0.00,VWS V14.01,2013-08-05 02:26:00,
2013-08-04 20:27:00,64.9,49.4,25.25,SE,143,2.7,3.1,57,0.00,,---,0.00,VWS V14.01,2013-08-05 02:27:00,
2013-08-04 20:31:00,65.1,50.5,25.25,SSE,147,2.7,2.7,59,0.00,,---,0.00,VWS V14.01,2013-08-05 02:31:00,
2013-08-04 20:32:00,65.3,49.2,25.25,ENE,57,2.7,2.7,56,0.00,,---,0.00,VWS V14.01,2013-08-05 02:32:00,
2013-08-04 20:33:00,65.3,49.2,25.25,SE,140,4.0,4.0,56,0.00,,---,0.00,VWS V14.01,2013-08-05 02:33:00,
2013-08-04 20:34:00,65.3,48.7,25.28,SE,140,3.1,4.0,55,0.00,,---,0.00,VWS V14.01,2013-08-05 02:34:00,
2013-08-04 20:37:00,65.5,48.4,25.28,SE,125,3.1,4.0,54,0.00,,---,0.00,VWS V14.01,2013-08-05 02:37:00,
2013-08-04 20:39:00,65.5,48.4,25.28,SSE,159,3.6,4.0,54,0.00,,---,0.00,VWS V14.01,2013-08-05 02:39:00,
2013-08-04 20:42:00,65.7,48.1,25.28,SE,146,3.6,4.0,53,0.00,,---,0.00,VWS V14.01,2013-08-05 02:42:00,
2013-08-04 20:43:00,65.7,48.1,25.28,SE,135,5.4,5.4,53,0.00,,---,0.00,VWS V14.01,2013-08-05 02:43:00,
2013-08-04 20:44:00,65.7,48.1,25.28,SE,142,5.8,5.8,53,0.00,,---,0.00,VWS V14.01,2013-08-05 02:44:00,
2013-08-04 20:45:00,65.8,47.7,25.28,SE,126,5.4,5.8,52,0.00,,---,0.00,VWS V14.01,2013-08-05 02:45:00,
2013-08-04 20:50:00,65.8,47.7,25.28,ESE,122,4.0,4.0,52,0.00,,---,0.00,VWS V14.01,2013-08-05 02:50:00,
2013-08-04 20:51:00,65.8,47.7,25.28,ESE,122,2.7,4.0,52,0.00,,---,0.00,VWS V14.01,2013-08-05 02:51:00,
2013-08-04 20:52:00,65.7,48.1,25.28,SE,136,3.1,3.1,53,0.00,,---,0.00,VWS V14.01,2013-08-05 02:52:00,
2013-08-04 20:55:00,65.7,47.6,25.28,SE,128,4.9,4.9,52,0.00,,---,0.00,VWS V14.01,2013-08-05 02:55:00,
2013-08-04 20:56:00,65.7,47.6,25.28,SE,133,5.8,5.8,52,0.00,,---,0.00,VWS V14.01,2013-08-05 02:56:00,
2013-08-04 20:57:00,65.7,48.1,25.28,SE,133,5.8,5.8,53,0.00,,---,0.00,VWS V14.01,2013-08-05 02:57:00,
2013-08-04 20:58:00,65.7,48.1,25.28,SE,141,3.1,5.8,53,0.00,,---,0.00,VWS V14.01,2013-08-05 02:58:00,
2013-08-04 21:02:00,65.7,48.6,25.28,ESE,122,3.1,4.0,54,0.00,,---,0.00,VWS V14.01,2013-08-05 03:02:00,
2013-08-04 21:06:00,65.7,48.6,25.28,SSE,153,2.7,3.6,54,0.00,,---,0.00,VWS V14.01,2013-08-05 03:06:00,
2013-08-04 21:07:00,65.5,48.4,25.28,SE,140,3.6,4.0,54,0.00,,---,0.00,VWS V14.01,2013-08-05 03:07:00,
2013-08-04 21:11:00,65.5,48.4,25.28,SSE,150,3.1,3.6,54,0.00,,---,0.00,VWS V14.01,2013-08-05 03:11:00,
2013-08-04 21:13:00,65.5,48.9,25.28,SSE,151,3.6,5.8,55,0.00,,---,0.00,VWS V14.01,2013-08-05 03:13:00,
2013-08-04 21:16:00,65.3,49.7,25.28,SSE,151,2.2,2.2,57,0.00,,---,0.00,VWS V14.01,2013-08-05 03:16:00,
2013-08-04 21:17:00,65.3,49.7,25.28,East,95,5.4,6.3,57,0.00,,---,0.00,VWS V14.01,2013-08-05 03:17:00,
2013-08-04 21:19:00,64.8,50.6,25.28,East,90,0.0,2.2,60,0.00,,---,0.00,VWS V14.01,2013-08-05 03:19:00,
2013-08-04 21:21:00,64.8,50.6,25.28,East,90,0.0,0.0,60,0.00,,---,0.00,VWS V14.01,2013-08-05 03:21:00,
2013-08-04 21:22:00,64.6,50.4,25.28,NNE,16,3.1,3.1,60,0.00,,---,0.00,VWS V14.01,2013-08-05 03:22:00,
2013-08-04 21:26:00,64.0,53.3,25.28,SSE,158,6.3,6.3,68,0.00,,---,0.00,VWS V14.01,2013-08-05 03:26:00,
2013-08-04 21:28:00,64.0,53.3,25.28,SE,132,6.7,6.7,68,0.00,,---,0.00,VWS V14.01,2013-08-05 03:28:00,
2013-08-04 21:29:00,63.9,53.5,25.28,SSE,157,4.0,6.7,69,0.00,,---,0.00,VWS V14.01,2013-08-05 03:29:00,
2013-08-04 21:31:00,63.7,54.1,25.28,ESE,106,3.6,5.8,71,0.00,,---,0.00,VWS V14.01,2013-08-05 03:31:00,
2013-08-04 21:32:00,63.5,53.9,25.28,ESE,102,5.8,5.8,71,0.00,,---,0.00,VWS V14.01,2013-08-05 03:32:00,
2013-08-04 21:34:00,63.5,53.9,25.28,East,86,8.7,8.7,71,0.00,,---,0.00,VWS V14.01,2013-08-05 03:34:00,
2013-08-04 21:35:00,63.5,53.9,25.28,ENE,78,7.6,8.7,71,0.00,,---,0.00,VWS V14.01,2013-08-05 03:35:00,
2013-08-04 21:38:00,63.3,54.2,25.28,NE,49,3.1,6.3,72,0.00,,---,0.00,VWS V14.01,2013-08-05 03:38:00,
2013-08-04 21:41:00,63.3,54.2,25.28,SE,129,8.7,9.2,72,0.00,,---,0.00,VWS V14.01,2013-08-05 03:41:00,
2013-08-04 21:44:00,63.3,54.5,25.28,ESE,118,6.3,6.3,73,0.00,,---,0.00,VWS V14.01,2013-08-05 03:44:00,
2013-08-04 21:45:00,63.3,54.5,25.28,East,85,3.6,6.3,73,0.00,,---,0.00,VWS V14.01,2013-08-05 03:45:00,
2013-08-04 21:47:00,63.3,54.5,25.28,ESE,106,8.7,8.7,73,0.00,,---,0.00,VWS V14.01,2013-08-05 03:47:00,
2013-08-04 21:48:00,63.3,54.9,25.28,ESE,106,4.0,6.3,74,0.00,,---,0.00,VWS V14.01,2013-08-05 03:48:00,
2013-08-04 21:51:00,63.3,54.9,25.28,East,88,4.0,4.0,74,0.00,,---,0.00,VWS V14.01,2013-08-05 03:51:00,
2013-08-04 21:52:00,63.3,54.9,25.28,East,99,9.2,9.2,74,0.00,,---,0.00,VWS V14.01,2013-08-05 03:52:00,
2013-08-04 21:56:00,63.3,55.3,25.28,East,95,5.4,5.8,75,0.00,,---,0.00,VWS V14.01,2013-08-05 03:56:00,
2013-08-04 21:58:00,63.3,55.3,25.28,NE,43,8.1,8.1,75,0.00,,---,0.00,VWS V14.01,2013-08-05 03:58:00,
2013-08-04 21:59:00,63.3,54.9,25.28,NNE,31,4.9,4.9,74,0.00,,---,0.00,VWS V14.01,2013-08-05 03:59:00,
2013-08-04 22:01:00,63.3,54.9,25.28,East,88,3.6,4.9,74,0.00,,---,0.00,VWS V14.01,2013-08-05 04:01:00,
2013-08-04 22:02:00,63.3,54.9,25.28,SSE,151,6.3,6.3,74,0.00,,---,0.00,VWS V14.01,2013-08-05 04:02:00,
2013-08-04 22:03:00,63.5,54.7,25.28,SE,132,10.5,10.5,73,0.00,,---,0.00,VWS V14.01,2013-08-05 04:03:00,
2013-08-04 22:05:00,63.5,54.7,25.28,ESE,108,8.1,10.5,73,0.00,,---,0.00,VWS V14.01,2013-08-05 04:05:00,
2013-08-04 22:06:00,63.7,54.5,25.28,East,97,5.4,8.1,72,0.00,,---,0.00,VWS V14.01,2013-08-05 04:06:00,
2013-08-04 22:08:00,63.9,54.7,25.28,NE,36,8.3,8.7,72,0.00,,---,0.00,VWS V14.01,2013-08-05 04:08:00,
2013-08-04 22:10:00,63.9,54.3,25.28,East,96,3.1,6.3,71,0.00,,---,0.00,VWS V14.01,2013-08-05 04:10:00,
2013-08-04 22:11:00,63.9,54.3,25.28,ENE,73,4.0,4.9,71,0.00,,---,0.00,VWS V14.01,2013-08-05 04:11:00,
2013-08-04 22:12:00,63.9,54.3,25.28,SE,145,6.3,6.3,71,0.00,,---,0.00,VWS V14.01,2013-08-05 04:12:00,
2013-08-04 22:16:00,63.9,54.3,25.28,ENE,77,5.4,5.4,71,0.00,,---,0.00,VWS V14.01,2013-08-05 04:16:00,
2013-08-04 22:17:00,63.9,54.3,25.28,ESE,114,6.3,6.3,71,0.00,,---,0.00,VWS V14.01,2013-08-05 04:17:00,
2013-08-04 22:20:00,63.9,54.7,25.28,SSE,158,7.6,7.6,72,0.00,,---,0.00,VWS V14.01,2013-08-05 04:20:00,
2013-08-04 22:21:00,63.9,54.3,25.28,East,100,6.3,8.3,71,0.00,,---,0.00,VWS V14.01,2013-08-05 04:21:00,
2013-08-04 22:23:00,63.9,53.9,25.28,ENE,66,5.8,6.3,70,0.00,,---,0.00,VWS V14.01,2013-08-05 04:23:00,
2013-08-04 22:26:00,63.9,53.9,25.28,ENE,78,5.4,5.4,70,0.00,,---,0.00,VWS V14.01,2013-08-05 04:26:00,
2013-08-04 22:28:00,63.9,53.5,25.28,SSE,166,10.1,10.1,69,0.00,,---,0.00,VWS V14.01,2013-08-05 04:28:00,
2013-08-04 22:29:00,64.0,53.7,25.28,ENE,67,5.8,10.1,69,0.00,,---,0.00,VWS V14.01,2013-08-05 04:29:00,
2013-08-04 22:31:00,64.0,53.3,25.28,East,99,7.2,7.2,68,0.00,,---,0.00,VWS V14.01,2013-08-05 04:31:00,
2013-08-04 22:34:00,64.2,53.0,25.28,ENE,65,4.0,7.2,67,0.00,,---,0.00,VWS V14.01,2013-08-05 04:34:00,
2013-08-04 22:35:00,64.2,52.6,25.28,East,89,3.6,4.0,66,0.00,,---,0.00,VWS V14.01,2013-08-05 04:35:00,
2013-08-04 22:37:00,64.2,52.6,25.28,ESE,106,3.1,5.8,66,0.00,,---,0.00,VWS V14.01,2013-08-05 04:37:00,
2013-08-04 22:40:00,64.4,52.4,25.28,ENE,67,2.7,10.1,65,0.00,,---,0.00,VWS V14.01,2013-08-05 04:40:00,
2013-08-04 22:41:00,64.4,52.4,25.28,ESE,114,4.0,5.8,65,0.00,,---,0.00,VWS V14.01,2013-08-05 04:41:00,
2013-08-04 22:43:00,64.4,52.4,25.28,SSW,210,5.4,5.8,65,0.00,,---,0.00,VWS V14.01,2013-08-05 04:43:00,
2013-08-04 22:45:00,64.4,52.4,25.28,ESE,113,5.8,5.8,65,0.00,,---,0.00,VWS V14.01,2013-08-05 04:45:00,
2013-08-04 22:46:00,64.2,52.6,25.28,East,82,0.0,5.8,66,0.00,,---,0.00,VWS V14.01,2013-08-05 04:46:00,
2013-08-04 22:49:00,64.2,52.6,25.28,South,170,3.1,3.1,66,0.00,,---,0.00,VWS V14.01,2013-08-05 04:49:00,
2013-08-04 22:51:00,64.0,52.5,25.28,SSE,156,3.6,6.3,66,0.00,,---,0.00,VWS V14.01,2013-08-05 04:51:00,
2013-08-04 22:52:00,64.0,52.5,25.28,SSE,153,2.2,3.6,66,0.00,,---,0.00,VWS V14.01,2013-08-05 04:52:00,
2013-08-04 22:56:00,64.0,52.5,25.28,SE,129,4.9,4.9,66,0.00,,---,0.00,VWS V14.01,2013-08-05 04:56:00,
2013-08-04 22:58:00,63.9,52.3,25.28,South,190,4.9,5.8,66,0.00,,---,0.00,VWS V14.01,2013-08-05 04:58:00,
2013-08-04 23:00:00,63.9,52.3,25.28,East,80,4.0,4.9,66,0.00,,---,0.00,VWS V14.01,2013-08-05 05:00:00,
2013-08-04 23:03:00,63.9,52.3,25.25,SSE,158,3.6,3.6,66,0.00,,---,0.00,VWS V14.01,2013-08-05 05:03:00,
2013-08-04 23:04:00,63.9,52.3,25.25,ENE,74,3.6,3.6,66,0.00,,---,0.00,VWS V14.01,2013-08-05 05:04:00,
2013-08-04 23:05:00,63.9,52.3,25.25,ESE,121,3.1,6.3,66,0.00,,---,0.00,VWS V14.01,2013-08-05 05:05:00,
2013-08-04 23:09:00,63.9,51.9,25.25,East,94,5.4,7.6,65,0.00,,---,0.00,VWS V14.01,2013-08-05 05:09:00,
2013-08-04 23:11:00,63.9,51.5,25.25,East,94,5.4,5.4,64,0.00,,---,0.00,VWS V14.01,2013-08-05 05:11:00,
2013-08-04 23:15:00,64.0,51.2,25.25,NE,49,3.6,4.0,63,0.00,,---,0.00,VWS V14.01,2013-08-05 05:15:00,
2013-08-04 23:19:00,64.0,49.0,25.25,NNE,24,5.4,5.4,58,0.00,,---,0.00,VWS V14.01,2013-08-05 05:19:00,
2013-08-04 23:21:00,64.0,49.0,25.25,East,86,5.4,5.4,58,0.00,,---,0.00,VWS V14.01,2013-08-05 05:21:00,
2013-08-04 23:24:00,64.4,48.4,25.25,ENE,77,4.0,4.0,56,0.00,,---,0.00,VWS V14.01,2013-08-05 05:24:00,
2013-08-04 23:26:00,64.6,48.5,25.25,ESE,110,3.1,5.8,56,0.00,,---,0.00,VWS V14.01,2013-08-05 05:26:00,
2013-08-04 23:27:00,64.6,48.5,25.25,East,99,5.4,5.4,56,0.00,,---,0.00,VWS V14.01,2013-08-05 05:27:00,
2013-08-04 23:29:00,64.8,47.8,25.25,East,99,5.4,5.4,54,0.00,,---,0.00,VWS V14.01,2013-08-05 05:29:00,
2013-08-04 23:30:00,64.8,48.2,25.25,East,88,5.8,5.8,55,0.00,,---,0.00,VWS V14.01,2013-08-05 05:30:00,
2013-08-04 23:32:00,64.8,48.2,25.25,ENE,60,5.4,5.8,55,0.00,,---,0.00,VWS V14.01,2013-08-05 05:32:00,
2013-08-04 23:33:00,64.8,48.2,25.25,SE,126,8.3,8.3,55,0.00,,---,0.00,VWS V14.01,2013-08-05 05:33:00,
2013-08-04 23:37:00,64.9,47.9,25.25,East,88,6.3,6.3,54,0.00,,---,0.00,VWS V14.01,2013-08-05 05:37:00,
2013-08-04 23:39:00,64.8,51.9,25.25,East,99,8.7,8.7,63,0.00,,---,0.00,VWS V14.01,2013-08-05 05:39:00,
2013-08-04 23:40:00,64.8,51.9,25.25,SE,141,5.8,8.7,63,0.00,,---,0.00,VWS V14.01,2013-08-05 05:40:00,
2013-08-04 23:41:00,64.6,51.7,25.25,SE,136,4.0,5.8,63,0.00,,---,0.00,VWS V14.01,2013-08-05 05:41:00,
2013-08-04 23:43:00,64.4,52.0,25.25,SE,126,8.7,8.7,64,0.00,,---,0.00,VWS V14.01,2013-08-05 05:43:00,
2013-08-04 23:46:00,63.9,51.5,25.25,East,83,3.6,3.6,64,0.00,,---,0.00,VWS V14.01,2013-08-05 05:46:00,
2013-08-04 23:48:00,63.5,52.0,25.25,SE,140,5.8,5.8,66,0.00,,---,0.00,VWS V14.01,2013-08-05 05:48:00,
2013-08-04 23:49:00,63.5,51.1,25.25,SSE,148,6.3,6.3,64,0.00,,---,0.00,VWS V14.01,2013-08-05 05:49:00,
2013-08-04 23:51:00,63.5,51.5,25.25,ESE,120,7.6,7.6,65,0.00,,---,0.00,VWS V14.01,2013-08-05 05:51:00,
2013-08-04 23:53:00,63.5,52.0,25.25,ESE,103,5.4,5.4,66,0.00,,---,0.00,VWS V14.01,2013-08-05 05:53:00,
2013-08-04 23:55:00,63.3,51.8,25.25,East,84,6.7,6.7,66,0.00,,---,0.00,VWS V14.01,2013-08-05 05:55:00,
2013-08-04 23:57:00,63.3,51.8,25.25,East,84,6.7,6.7,66,0.00,,---,0.00,VWS V14.01,2013-08-05 05:57:00,
2013-08-04 23:58:00,63.3,52.2,25.25,SE,130,5.8,6.7,67,0.00,,---,0.00,VWS V14.01,2013-08-05 05:58:00,